<?xml version="1.0" encoding="UTF-8" standalone="no" ?>
<gpx xmlns="http://www.topografix.com/GPX/1/1" xmlns:xsi="http://www.w3.org/2001/XMLSchema-instance" xsi:schemaLocation="http://www.topografix.com/GPX/1/1 http://www.topografix.com/GPX/1/1/gpx.xsd" version="1.1" creator="VisuGPX - https://www.visugpx.com">
  <metadata>
    <name>Parcours d\'entaînement trail</name>
    <desc><![CDATA[Parcours d\'entraînement trail au départ du village d\'Igon. 330m positif]]></desc>
  </metadata>
  <trk>
    <name><![CDATA[Parcours d\'entaînement trail_1]]></name>
    <trkseg>
      <trkpt lat="43.16006" lon="-0.2365">
        <ele>271.1</ele>
        <time>2013-02-03T10:39:26Z</time>
      </trkpt>
      <trkpt lat="43.15998" lon="-0.23647">
        <ele>271.1</ele>
        <time>2013-02-03T10:39:31Z</time>
      </trkpt>
      <trkpt lat="43.15985" lon="-0.23641">
        <ele>271.5</ele>
        <time>2013-02-03T10:39:36Z</time>
      </trkpt>
      <trkpt lat="43.15977" lon="-0.23638">
        <ele>271.8</ele>
        <time>2013-02-03T10:39:41Z</time>
      </trkpt>
      <trkpt lat="43.15962" lon="-0.23636">
        <ele>271.9</ele>
        <time>2013-02-03T10:39:46Z</time>
      </trkpt>
      <trkpt lat="43.15953" lon="-0.23635">
        <ele>272</ele>
        <time>2013-02-03T10:39:51Z</time>
      </trkpt>
      <trkpt lat="43.15943" lon="-0.23633">
        <ele>272</ele>
        <time>2013-02-03T10:39:56Z</time>
      </trkpt>
      <trkpt lat="43.15929" lon="-0.23631">
        <ele>272</ele>
        <time>2013-02-03T10:40:01Z</time>
      </trkpt>
      <trkpt lat="43.1592" lon="-0.23629">
        <ele>272</ele>
        <time>2013-02-03T10:40:06Z</time>
      </trkpt>
      <trkpt lat="43.15906" lon="-0.23624">
        <ele>272</ele>
        <time>2013-02-03T10:40:11Z</time>
      </trkpt>
      <trkpt lat="43.15897" lon="-0.23622">
        <ele>272</ele>
        <time>2013-02-03T10:40:16Z</time>
      </trkpt>
      <trkpt lat="43.15886" lon="-0.23619">
        <ele>272.1</ele>
        <time>2013-02-03T10:40:21Z</time>
      </trkpt>
      <trkpt lat="43.15872" lon="-0.23616">
        <ele>272.6</ele>
        <time>2013-02-03T10:40:26Z</time>
      </trkpt>
      <trkpt lat="43.15863" lon="-0.23613">
        <ele>272.9</ele>
        <time>2013-02-03T10:40:31Z</time>
      </trkpt>
      <trkpt lat="43.15849" lon="-0.23609">
        <ele>273</ele>
        <time>2013-02-03T10:40:36Z</time>
      </trkpt>
      <trkpt lat="43.15839" lon="-0.23607">
        <ele>273</ele>
        <time>2013-02-03T10:40:41Z</time>
      </trkpt>
      <trkpt lat="43.15828" lon="-0.23603">
        <ele>273</ele>
        <time>2013-02-03T10:40:46Z</time>
      </trkpt>
      <trkpt lat="43.15815" lon="-0.23598">
        <ele>273</ele>
        <time>2013-02-03T10:40:51Z</time>
      </trkpt>
      <trkpt lat="43.15805" lon="-0.23595">
        <ele>273</ele>
        <time>2013-02-03T10:40:56Z</time>
      </trkpt>
      <trkpt lat="43.15791" lon="-0.23594">
        <ele>273</ele>
        <time>2013-02-03T10:41:01Z</time>
      </trkpt>
      <trkpt lat="43.15782" lon="-0.23594">
        <ele>273</ele>
        <time>2013-02-03T10:41:06Z</time>
      </trkpt>
      <trkpt lat="43.15771" lon="-0.23594">
        <ele>273.2</ele>
        <time>2013-02-03T10:41:11Z</time>
      </trkpt>
      <trkpt lat="43.15758" lon="-0.23593">
        <ele>273.5</ele>
        <time>2013-02-03T10:41:16Z</time>
      </trkpt>
      <trkpt lat="43.15749" lon="-0.23592">
        <ele>273.7</ele>
        <time>2013-02-03T10:41:21Z</time>
      </trkpt>
      <trkpt lat="43.15735" lon="-0.23589">
        <ele>273.9</ele>
        <time>2013-02-03T10:41:26Z</time>
      </trkpt>
      <trkpt lat="43.15726" lon="-0.23586">
        <ele>274</ele>
        <time>2013-02-03T10:41:31Z</time>
      </trkpt>
      <trkpt lat="43.15715" lon="-0.2358">
        <ele>274</ele>
        <time>2013-02-03T10:41:36Z</time>
      </trkpt>
      <trkpt lat="43.15702" lon="-0.23573">
        <ele>274</ele>
        <time>2013-02-03T10:41:41Z</time>
      </trkpt>
      <trkpt lat="43.15693" lon="-0.23567">
        <ele>274</ele>
        <time>2013-02-03T10:41:46Z</time>
      </trkpt>
      <trkpt lat="43.1568" lon="-0.23559">
        <ele>274.5</ele>
        <time>2013-02-03T10:41:51Z</time>
      </trkpt>
      <trkpt lat="43.15671" lon="-0.23551">
        <ele>274.9</ele>
        <time>2013-02-03T10:41:56Z</time>
      </trkpt>
      <trkpt lat="43.15661" lon="-0.23542">
        <ele>274.9</ele>
        <time>2013-02-03T10:42:01Z</time>
      </trkpt>
      <trkpt lat="43.1565" lon="-0.23531">
        <ele>274.9</ele>
        <time>2013-02-03T10:42:06Z</time>
      </trkpt>
      <trkpt lat="43.15642" lon="-0.23523">
        <ele>275</ele>
        <time>2013-02-03T10:42:11Z</time>
      </trkpt>
      <trkpt lat="43.15631" lon="-0.23511">
        <ele>274.9</ele>
        <time>2013-02-03T10:42:16Z</time>
      </trkpt>
      <trkpt lat="43.15623" lon="-0.23505">
        <ele>274.9</ele>
        <time>2013-02-03T10:42:21Z</time>
      </trkpt>
      <trkpt lat="43.15611" lon="-0.23494">
        <ele>275</ele>
        <time>2013-02-03T10:42:26Z</time>
      </trkpt>
      <trkpt lat="43.156" lon="-0.23488">
        <ele>275.2</ele>
        <time>2013-02-03T10:42:31Z</time>
      </trkpt>
      <trkpt lat="43.15591" lon="-0.23482">
        <ele>275.5</ele>
        <time>2013-02-03T10:42:36Z</time>
      </trkpt>
      <trkpt lat="43.1558" lon="-0.23471">
        <ele>276</ele>
        <time>2013-02-03T10:42:41Z</time>
      </trkpt>
      <trkpt lat="43.15578" lon="-0.2346">
        <ele>276</ele>
        <time>2013-02-03T10:42:46Z</time>
      </trkpt>
      <trkpt lat="43.15567" lon="-0.23448">
        <ele>276</ele>
        <time>2013-02-03T10:42:51Z</time>
      </trkpt>
      <trkpt lat="43.15555" lon="-0.23449">
        <ele>276</ele>
        <time>2013-02-03T10:42:56Z</time>
      </trkpt>
      <trkpt lat="43.15546" lon="-0.23452">
        <ele>276</ele>
        <time>2013-02-03T10:43:01Z</time>
      </trkpt>
      <trkpt lat="43.15535" lon="-0.23459">
        <ele>276</ele>
        <time>2013-02-03T10:43:06Z</time>
      </trkpt>
      <trkpt lat="43.15527" lon="-0.23465">
        <ele>276</ele>
        <time>2013-02-03T10:43:11Z</time>
      </trkpt>
      <trkpt lat="43.15514" lon="-0.23473">
        <ele>276.5</ele>
        <time>2013-02-03T10:43:16Z</time>
      </trkpt>
      <trkpt lat="43.15505" lon="-0.23479">
        <ele>276.8</ele>
        <time>2013-02-03T10:43:21Z</time>
      </trkpt>
      <trkpt lat="43.15496" lon="-0.23484">
        <ele>277</ele>
        <time>2013-02-03T10:43:26Z</time>
      </trkpt>
      <trkpt lat="43.15483" lon="-0.23494">
        <ele>277</ele>
        <time>2013-02-03T10:43:31Z</time>
      </trkpt>
      <trkpt lat="43.15473" lon="-0.23501">
        <ele>277</ele>
        <time>2013-02-03T10:43:36Z</time>
      </trkpt>
      <trkpt lat="43.1546" lon="-0.23508">
        <ele>276.8</ele>
        <time>2013-02-03T10:43:41Z</time>
      </trkpt>
      <trkpt lat="43.15448" lon="-0.23513">
        <ele>276.9</ele>
        <time>2013-02-03T10:43:46Z</time>
      </trkpt>
      <trkpt lat="43.1544" lon="-0.23516">
        <ele>277.1</ele>
        <time>2013-02-03T10:43:51Z</time>
      </trkpt>
      <trkpt lat="43.15427" lon="-0.2352">
        <ele>277.2</ele>
        <time>2013-02-03T10:43:56Z</time>
      </trkpt>
      <trkpt lat="43.15419" lon="-0.23524">
        <ele>277.1</ele>
        <time>2013-02-03T10:44:01Z</time>
      </trkpt>
      <trkpt lat="43.15407" lon="-0.23528">
        <ele>277.3</ele>
        <time>2013-02-03T10:44:06Z</time>
      </trkpt>
      <trkpt lat="43.15399" lon="-0.23531">
        <ele>277.7</ele>
        <time>2013-02-03T10:44:11Z</time>
      </trkpt>
      <trkpt lat="43.15388" lon="-0.23536">
        <ele>278</ele>
        <time>2013-02-03T10:44:16Z</time>
      </trkpt>
      <trkpt lat="43.15376" lon="-0.2354">
        <ele>278.1</ele>
        <time>2013-02-03T10:44:21Z</time>
      </trkpt>
      <trkpt lat="43.15368" lon="-0.23543">
        <ele>277.9</ele>
        <time>2013-02-03T10:44:26Z</time>
      </trkpt>
      <trkpt lat="43.15355" lon="-0.23552">
        <ele>277.5</ele>
        <time>2013-02-03T10:44:31Z</time>
      </trkpt>
      <trkpt lat="43.15347" lon="-0.23556">
        <ele>277.5</ele>
        <time>2013-02-03T10:44:36Z</time>
      </trkpt>
      <trkpt lat="43.1534" lon="-0.23565">
        <ele>277.2</ele>
        <time>2013-02-03T10:44:41Z</time>
      </trkpt>
      <trkpt lat="43.15324" lon="-0.2357">
        <ele>277.3</ele>
        <time>2013-02-03T10:44:46Z</time>
      </trkpt>
      <trkpt lat="43.15317" lon="-0.23569">
        <ele>277.6</ele>
        <time>2013-02-03T10:44:51Z</time>
      </trkpt>
      <trkpt lat="43.15312" lon="-0.23578">
        <ele>277.1</ele>
        <time>2013-02-03T10:44:56Z</time>
      </trkpt>
      <trkpt lat="43.15305" lon="-0.23585">
        <ele>277</ele>
        <time>2013-02-03T10:45:01Z</time>
      </trkpt>
      <trkpt lat="43.15296" lon="-0.23594">
        <ele>277</ele>
        <time>2013-02-03T10:45:06Z</time>
      </trkpt>
      <trkpt lat="43.15286" lon="-0.23602">
        <ele>277</ele>
        <time>2013-02-03T10:45:11Z</time>
      </trkpt>
      <trkpt lat="43.15276" lon="-0.23604">
        <ele>277</ele>
        <time>2013-02-03T10:45:16Z</time>
      </trkpt>
      <trkpt lat="43.15263" lon="-0.23611">
        <ele>277</ele>
        <time>2013-02-03T10:45:21Z</time>
      </trkpt>
      <trkpt lat="43.15254" lon="-0.23618">
        <ele>277</ele>
        <time>2013-02-03T10:45:26Z</time>
      </trkpt>
      <trkpt lat="43.15247" lon="-0.23629">
        <ele>277.1</ele>
        <time>2013-02-03T10:45:31Z</time>
      </trkpt>
      <trkpt lat="43.15241" lon="-0.23642">
        <ele>277.1</ele>
        <time>2013-02-03T10:45:36Z</time>
      </trkpt>
      <trkpt lat="43.15234" lon="-0.23654">
        <ele>277.5</ele>
        <time>2013-02-03T10:45:41Z</time>
      </trkpt>
      <trkpt lat="43.15224" lon="-0.2367">
        <ele>278</ele>
        <time>2013-02-03T10:45:46Z</time>
      </trkpt>
      <trkpt lat="43.15217" lon="-0.23679">
        <ele>277.9</ele>
        <time>2013-02-03T10:45:51Z</time>
      </trkpt>
      <trkpt lat="43.15207" lon="-0.2369">
        <ele>277.5</ele>
        <time>2013-02-03T10:45:56Z</time>
      </trkpt>
      <trkpt lat="43.15197" lon="-0.23704">
        <ele>277.4</ele>
        <time>2013-02-03T10:46:01Z</time>
      </trkpt>
      <trkpt lat="43.15191" lon="-0.23714">
        <ele>277.8</ele>
        <time>2013-02-03T10:46:06Z</time>
      </trkpt>
      <trkpt lat="43.15179" lon="-0.23726">
        <ele>278.4</ele>
        <time>2013-02-03T10:46:11Z</time>
      </trkpt>
      <trkpt lat="43.1517" lon="-0.23734">
        <ele>278.4</ele>
        <time>2013-02-03T10:46:16Z</time>
      </trkpt>
      <trkpt lat="43.15157" lon="-0.23744">
        <ele>278.5</ele>
        <time>2013-02-03T10:46:21Z</time>
      </trkpt>
      <trkpt lat="43.15148" lon="-0.23752">
        <ele>278.6</ele>
        <time>2013-02-03T10:46:26Z</time>
      </trkpt>
      <trkpt lat="43.1514" lon="-0.23758">
        <ele>278.4</ele>
        <time>2013-02-03T10:46:31Z</time>
      </trkpt>
      <trkpt lat="43.15127" lon="-0.23767">
        <ele>278.3</ele>
        <time>2013-02-03T10:46:36Z</time>
      </trkpt>
      <trkpt lat="43.15117" lon="-0.2377">
        <ele>278.7</ele>
        <time>2013-02-03T10:46:41Z</time>
      </trkpt>
      <trkpt lat="43.15106" lon="-0.23761">
        <ele>279.1</ele>
        <time>2013-02-03T10:46:46Z</time>
      </trkpt>
      <trkpt lat="43.15099" lon="-0.23748">
        <ele>279.4</ele>
        <time>2013-02-03T10:46:51Z</time>
      </trkpt>
      <trkpt lat="43.15091" lon="-0.23738">
        <ele>279.1</ele>
        <time>2013-02-03T10:46:56Z</time>
      </trkpt>
      <trkpt lat="43.15086" lon="-0.2373">
        <ele>278.6</ele>
        <time>2013-02-03T10:47:01Z</time>
      </trkpt>
      <trkpt lat="43.15084" lon="-0.23721">
        <ele>278.1</ele>
        <time>2013-02-03T10:47:06Z</time>
      </trkpt>
      <trkpt lat="43.15083" lon="-0.23706">
        <ele>278.6</ele>
        <time>2013-02-03T10:47:11Z</time>
      </trkpt>
      <trkpt lat="43.15075" lon="-0.23693">
        <ele>279.1</ele>
        <time>2013-02-03T10:47:16Z</time>
      </trkpt>
      <trkpt lat="43.15067" lon="-0.23686">
        <ele>279.8</ele>
        <time>2013-02-03T10:47:21Z</time>
      </trkpt>
      <trkpt lat="43.15055" lon="-0.23679">
        <ele>280.7</ele>
        <time>2013-02-03T10:47:26Z</time>
      </trkpt>
      <trkpt lat="43.15048" lon="-0.23673">
        <ele>281.6</ele>
        <time>2013-02-03T10:47:31Z</time>
      </trkpt>
      <trkpt lat="43.1504" lon="-0.23663">
        <ele>282.8</ele>
        <time>2013-02-03T10:47:36Z</time>
      </trkpt>
      <trkpt lat="43.15033" lon="-0.23652">
        <ele>283.5</ele>
        <time>2013-02-03T10:47:41Z</time>
      </trkpt>
      <trkpt lat="43.15025" lon="-0.23642">
        <ele>284</ele>
        <time>2013-02-03T10:47:46Z</time>
      </trkpt>
      <trkpt lat="43.15014" lon="-0.2363">
        <ele>284.8</ele>
        <time>2013-02-03T10:47:51Z</time>
      </trkpt>
      <trkpt lat="43.15007" lon="-0.23625">
        <ele>285.3</ele>
        <time>2013-02-03T10:47:56Z</time>
      </trkpt>
      <trkpt lat="43.14997" lon="-0.23612">
        <ele>285.9</ele>
        <time>2013-02-03T10:48:01Z</time>
      </trkpt>
      <trkpt lat="43.14989" lon="-0.23603">
        <ele>286.1</ele>
        <time>2013-02-03T10:48:06Z</time>
      </trkpt>
      <trkpt lat="43.14979" lon="-0.23607">
        <ele>286.1</ele>
        <time>2013-02-03T10:48:11Z</time>
      </trkpt>
      <trkpt lat="43.14965" lon="-0.23615">
        <ele>285.9</ele>
        <time>2013-02-03T10:48:16Z</time>
      </trkpt>
      <trkpt lat="43.14956" lon="-0.2362">
        <ele>286</ele>
        <time>2013-02-03T10:48:21Z</time>
      </trkpt>
      <trkpt lat="43.14943" lon="-0.23628">
        <ele>286.5</ele>
        <time>2013-02-03T10:48:26Z</time>
      </trkpt>
      <trkpt lat="43.14933" lon="-0.23632">
        <ele>286.5</ele>
        <time>2013-02-03T10:48:31Z</time>
      </trkpt>
      <trkpt lat="43.14922" lon="-0.23638">
        <ele>286.8</ele>
        <time>2013-02-03T10:48:36Z</time>
      </trkpt>
      <trkpt lat="43.14907" lon="-0.23646">
        <ele>286.7</ele>
        <time>2013-02-03T10:48:41Z</time>
      </trkpt>
      <trkpt lat="43.14898" lon="-0.23651">
        <ele>286.7</ele>
        <time>2013-02-03T10:48:46Z</time>
      </trkpt>
      <trkpt lat="43.14884" lon="-0.23658">
        <ele>287.1</ele>
        <time>2013-02-03T10:48:51Z</time>
      </trkpt>
      <trkpt lat="43.14874" lon="-0.23662">
        <ele>287.1</ele>
        <time>2013-02-03T10:48:56Z</time>
      </trkpt>
      <trkpt lat="43.14863" lon="-0.23667">
        <ele>287</ele>
        <time>2013-02-03T10:49:01Z</time>
      </trkpt>
      <trkpt lat="43.14849" lon="-0.23674">
        <ele>287.1</ele>
        <time>2013-02-03T10:49:06Z</time>
      </trkpt>
      <trkpt lat="43.14839" lon="-0.23678">
        <ele>287.1</ele>
        <time>2013-02-03T10:49:11Z</time>
      </trkpt>
      <trkpt lat="43.14824" lon="-0.23683">
        <ele>287.2</ele>
        <time>2013-02-03T10:49:16Z</time>
      </trkpt>
      <trkpt lat="43.14815" lon="-0.23684">
        <ele>287.6</ele>
        <time>2013-02-03T10:49:21Z</time>
      </trkpt>
      <trkpt lat="43.14802" lon="-0.23683">
        <ele>288.1</ele>
        <time>2013-02-03T10:49:26Z</time>
      </trkpt>
      <trkpt lat="43.14789" lon="-0.23678">
        <ele>288.4</ele>
        <time>2013-02-03T10:49:31Z</time>
      </trkpt>
      <trkpt lat="43.14779" lon="-0.23673">
        <ele>288.7</ele>
        <time>2013-02-03T10:49:36Z</time>
      </trkpt>
      <trkpt lat="43.14764" lon="-0.23668">
        <ele>289.4</ele>
        <time>2013-02-03T10:49:41Z</time>
      </trkpt>
      <trkpt lat="43.14753" lon="-0.23664">
        <ele>290</ele>
        <time>2013-02-03T10:49:46Z</time>
      </trkpt>
      <trkpt lat="43.14744" lon="-0.23661">
        <ele>290.4</ele>
        <time>2013-02-03T10:49:51Z</time>
      </trkpt>
      <trkpt lat="43.14729" lon="-0.23659">
        <ele>290.8</ele>
        <time>2013-02-03T10:49:56Z</time>
      </trkpt>
      <trkpt lat="43.14719" lon="-0.23657">
        <ele>291</ele>
        <time>2013-02-03T10:50:01Z</time>
      </trkpt>
      <trkpt lat="43.14703" lon="-0.23644">
        <ele>291</ele>
        <time>2013-02-03T10:50:06Z</time>
      </trkpt>
      <trkpt lat="43.14692" lon="-0.23636">
        <ele>291.2</ele>
        <time>2013-02-03T10:50:11Z</time>
      </trkpt>
      <trkpt lat="43.14678" lon="-0.23626">
        <ele>293.2</ele>
        <time>2013-02-03T10:50:16Z</time>
      </trkpt>
      <trkpt lat="43.14683" lon="-0.23607">
        <ele>294.2</ele>
        <time>2013-02-03T10:50:21Z</time>
      </trkpt>
      <trkpt lat="43.14688" lon="-0.23595">
        <ele>293.6</ele>
        <time>2013-02-03T10:50:26Z</time>
      </trkpt>
      <trkpt lat="43.14696" lon="-0.23581">
        <ele>293</ele>
        <time>2013-02-03T10:50:31Z</time>
      </trkpt>
      <trkpt lat="43.14697" lon="-0.23569">
        <ele>293.8</ele>
        <time>2013-02-03T10:50:36Z</time>
      </trkpt>
      <trkpt lat="43.14687" lon="-0.23567">
        <ele>295.7</ele>
        <time>2013-02-03T10:50:41Z</time>
      </trkpt>
      <trkpt lat="43.14677" lon="-0.23573">
        <ele>296.8</ele>
        <time>2013-02-03T10:50:46Z</time>
      </trkpt>
      <trkpt lat="43.14669" lon="-0.23579">
        <ele>297.4</ele>
        <time>2013-02-03T10:50:51Z</time>
      </trkpt>
      <trkpt lat="43.14657" lon="-0.23587">
        <ele>299.1</ele>
        <time>2013-02-03T10:50:56Z</time>
      </trkpt>
      <trkpt lat="43.14649" lon="-0.23592">
        <ele>300.2</ele>
        <time>2013-02-03T10:51:01Z</time>
      </trkpt>
      <trkpt lat="43.14638" lon="-0.23598">
        <ele>301.1</ele>
        <time>2013-02-03T10:51:06Z</time>
      </trkpt>
      <trkpt lat="43.14624" lon="-0.23599">
        <ele>302.4</ele>
        <time>2013-02-03T10:51:11Z</time>
      </trkpt>
      <trkpt lat="43.14614" lon="-0.23601">
        <ele>303.2</ele>
        <time>2013-02-03T10:51:16Z</time>
      </trkpt>
      <trkpt lat="43.146" lon="-0.23603">
        <ele>304.7</ele>
        <time>2013-02-03T10:51:21Z</time>
      </trkpt>
      <trkpt lat="43.14592" lon="-0.23604">
        <ele>305.9</ele>
        <time>2013-02-03T10:51:26Z</time>
      </trkpt>
      <trkpt lat="43.14578" lon="-0.23602">
        <ele>308</ele>
        <time>2013-02-03T10:51:31Z</time>
      </trkpt>
      <trkpt lat="43.14567" lon="-0.23602">
        <ele>309.1</ele>
        <time>2013-02-03T10:51:36Z</time>
      </trkpt>
      <trkpt lat="43.14558" lon="-0.23601">
        <ele>309.9</ele>
        <time>2013-02-03T10:51:41Z</time>
      </trkpt>
      <trkpt lat="43.14544" lon="-0.23599">
        <ele>311</ele>
        <time>2013-02-03T10:51:46Z</time>
      </trkpt>
      <trkpt lat="43.14534" lon="-0.23596">
        <ele>311.7</ele>
        <time>2013-02-03T10:51:51Z</time>
      </trkpt>
      <trkpt lat="43.14522" lon="-0.23595">
        <ele>312.2</ele>
        <time>2013-02-03T10:51:56Z</time>
      </trkpt>
      <trkpt lat="43.14513" lon="-0.23593">
        <ele>312.5</ele>
        <time>2013-02-03T10:52:01Z</time>
      </trkpt>
      <trkpt lat="43.14503" lon="-0.23591">
        <ele>312.9</ele>
        <time>2013-02-03T10:52:06Z</time>
      </trkpt>
      <trkpt lat="43.14488" lon="-0.23588">
        <ele>313.5</ele>
        <time>2013-02-03T10:52:11Z</time>
      </trkpt>
      <trkpt lat="43.14479" lon="-0.23582">
        <ele>313.8</ele>
        <time>2013-02-03T10:52:16Z</time>
      </trkpt>
      <trkpt lat="43.14468" lon="-0.2357">
        <ele>314.4</ele>
        <time>2013-02-03T10:52:21Z</time>
      </trkpt>
      <trkpt lat="43.14459" lon="-0.23558">
        <ele>315</ele>
        <time>2013-02-03T10:52:26Z</time>
      </trkpt>
      <trkpt lat="43.14452" lon="-0.23548">
        <ele>315.3</ele>
        <time>2013-02-03T10:52:31Z</time>
      </trkpt>
      <trkpt lat="43.14441" lon="-0.23533">
        <ele>315.2</ele>
        <time>2013-02-03T10:52:36Z</time>
      </trkpt>
      <trkpt lat="43.14434" lon="-0.23522">
        <ele>314.9</ele>
        <time>2013-02-03T10:52:41Z</time>
      </trkpt>
      <trkpt lat="43.14423" lon="-0.23507">
        <ele>314.8</ele>
        <time>2013-02-03T10:52:46Z</time>
      </trkpt>
      <trkpt lat="43.14415" lon="-0.23496">
        <ele>314.8</ele>
        <time>2013-02-03T10:52:51Z</time>
      </trkpt>
      <trkpt lat="43.14406" lon="-0.23484">
        <ele>314.5</ele>
        <time>2013-02-03T10:52:56Z</time>
      </trkpt>
      <trkpt lat="43.14393" lon="-0.23473">
        <ele>314.8</ele>
        <time>2013-02-03T10:53:01Z</time>
      </trkpt>
      <trkpt lat="43.14383" lon="-0.23469">
        <ele>315.1</ele>
        <time>2013-02-03T10:53:06Z</time>
      </trkpt>
      <trkpt lat="43.14369" lon="-0.23465">
        <ele>315.4</ele>
        <time>2013-02-03T10:53:11Z</time>
      </trkpt>
      <trkpt lat="43.1436" lon="-0.23462">
        <ele>315.7</ele>
        <time>2013-02-03T10:53:16Z</time>
      </trkpt>
      <trkpt lat="43.14348" lon="-0.23457">
        <ele>315.9</ele>
        <time>2013-02-03T10:53:21Z</time>
      </trkpt>
      <trkpt lat="43.14334" lon="-0.23455">
        <ele>316.3</ele>
        <time>2013-02-03T10:53:26Z</time>
      </trkpt>
      <trkpt lat="43.14325" lon="-0.23452">
        <ele>316.4</ele>
        <time>2013-02-03T10:53:31Z</time>
      </trkpt>
      <trkpt lat="43.14311" lon="-0.23449">
        <ele>316.3</ele>
        <time>2013-02-03T10:53:36Z</time>
      </trkpt>
      <trkpt lat="43.14301" lon="-0.23446">
        <ele>316.5</ele>
        <time>2013-02-03T10:53:41Z</time>
      </trkpt>
      <trkpt lat="43.14289" lon="-0.23444">
        <ele>317.1</ele>
        <time>2013-02-03T10:53:46Z</time>
      </trkpt>
      <trkpt lat="43.14275" lon="-0.23441">
        <ele>317.8</ele>
        <time>2013-02-03T10:53:51Z</time>
      </trkpt>
      <trkpt lat="43.14265" lon="-0.23439">
        <ele>317.6</ele>
        <time>2013-02-03T10:53:56Z</time>
      </trkpt>
      <trkpt lat="43.1425" lon="-0.23435">
        <ele>317.3</ele>
        <time>2013-02-03T10:54:01Z</time>
      </trkpt>
      <trkpt lat="43.1424" lon="-0.23433">
        <ele>317.3</ele>
        <time>2013-02-03T10:54:06Z</time>
      </trkpt>
      <trkpt lat="43.14225" lon="-0.23432">
        <ele>317.5</ele>
        <time>2013-02-03T10:54:11Z</time>
      </trkpt>
      <trkpt lat="43.14211" lon="-0.23427">
        <ele>317.8</ele>
        <time>2013-02-03T10:54:16Z</time>
      </trkpt>
      <trkpt lat="43.14201" lon="-0.23425">
        <ele>318.1</ele>
        <time>2013-02-03T10:54:21Z</time>
      </trkpt>
      <trkpt lat="43.14185" lon="-0.23422">
        <ele>318.6</ele>
        <time>2013-02-03T10:54:26Z</time>
      </trkpt>
      <trkpt lat="43.14176" lon="-0.23419">
        <ele>318.8</ele>
        <time>2013-02-03T10:54:31Z</time>
      </trkpt>
      <trkpt lat="43.14163" lon="-0.23415">
        <ele>319.5</ele>
        <time>2013-02-03T10:54:36Z</time>
      </trkpt>
      <trkpt lat="43.14151" lon="-0.23414">
        <ele>320.9</ele>
        <time>2013-02-03T10:54:41Z</time>
      </trkpt>
      <trkpt lat="43.14141" lon="-0.23412">
        <ele>321.9</ele>
        <time>2013-02-03T10:54:46Z</time>
      </trkpt>
      <trkpt lat="43.14128" lon="-0.23411">
        <ele>322.6</ele>
        <time>2013-02-03T10:54:51Z</time>
      </trkpt>
      <trkpt lat="43.1412" lon="-0.23411">
        <ele>323.1</ele>
        <time>2013-02-03T10:54:56Z</time>
      </trkpt>
      <trkpt lat="43.14107" lon="-0.23416">
        <ele>325.1</ele>
        <time>2013-02-03T10:55:01Z</time>
      </trkpt>
      <trkpt lat="43.14096" lon="-0.23416">
        <ele>325.9</ele>
        <time>2013-02-03T10:55:06Z</time>
      </trkpt>
      <trkpt lat="43.14087" lon="-0.23415">
        <ele>326.5</ele>
        <time>2013-02-03T10:55:11Z</time>
      </trkpt>
      <trkpt lat="43.14072" lon="-0.23414">
        <ele>326.9</ele>
        <time>2013-02-03T10:55:16Z</time>
      </trkpt>
      <trkpt lat="43.14064" lon="-0.23418">
        <ele>327.9</ele>
        <time>2013-02-03T10:55:21Z</time>
      </trkpt>
      <trkpt lat="43.14052" lon="-0.23424">
        <ele>329.4</ele>
        <time>2013-02-03T10:55:26Z</time>
      </trkpt>
      <trkpt lat="43.14042" lon="-0.23432">
        <ele>330.6</ele>
        <time>2013-02-03T10:55:31Z</time>
      </trkpt>
      <trkpt lat="43.14037" lon="-0.23438">
        <ele>331.4</ele>
        <time>2013-02-03T10:55:36Z</time>
      </trkpt>
      <trkpt lat="43.14029" lon="-0.23451">
        <ele>333.5</ele>
        <time>2013-02-03T10:55:41Z</time>
      </trkpt>
      <trkpt lat="43.14021" lon="-0.23458">
        <ele>335.7</ele>
        <time>2013-02-03T10:55:46Z</time>
      </trkpt>
      <trkpt lat="43.14008" lon="-0.23454">
        <ele>336.6</ele>
        <time>2013-02-03T10:55:51Z</time>
      </trkpt>
      <trkpt lat="43.14002" lon="-0.23445">
        <ele>335.7</ele>
        <time>2013-02-03T10:55:56Z</time>
      </trkpt>
      <trkpt lat="43.13994" lon="-0.23432">
        <ele>335.5</ele>
        <time>2013-02-03T10:56:01Z</time>
      </trkpt>
      <trkpt lat="43.13981" lon="-0.23419">
        <ele>336.2</ele>
        <time>2013-02-03T10:56:06Z</time>
      </trkpt>
      <trkpt lat="43.13972" lon="-0.23411">
        <ele>336.6</ele>
        <time>2013-02-03T10:56:11Z</time>
      </trkpt>
      <trkpt lat="43.1396" lon="-0.23407">
        <ele>339.1</ele>
        <time>2013-02-03T10:56:16Z</time>
      </trkpt>
      <trkpt lat="43.13951" lon="-0.23402">
        <ele>340.6</ele>
        <time>2013-02-03T10:56:21Z</time>
      </trkpt>
      <trkpt lat="43.13941" lon="-0.23396">
        <ele>342.1</ele>
        <time>2013-02-03T10:56:26Z</time>
      </trkpt>
      <trkpt lat="43.13927" lon="-0.23387">
        <ele>344.4</ele>
        <time>2013-02-03T10:56:31Z</time>
      </trkpt>
      <trkpt lat="43.13921" lon="-0.23381">
        <ele>346.1</ele>
        <time>2013-02-03T10:56:36Z</time>
      </trkpt>
      <trkpt lat="43.13911" lon="-0.23366">
        <ele>346.8</ele>
        <time>2013-02-03T10:56:41Z</time>
      </trkpt>
      <trkpt lat="43.1391" lon="-0.23357">
        <ele>347</ele>
        <time>2013-02-03T10:56:46Z</time>
      </trkpt>
      <trkpt lat="43.13915" lon="-0.23345">
        <ele>348</ele>
        <time>2013-02-03T10:56:51Z</time>
      </trkpt>
      <trkpt lat="43.13923" lon="-0.23336">
        <ele>348.1</ele>
        <time>2013-02-03T10:56:56Z</time>
      </trkpt>
      <trkpt lat="43.13925" lon="-0.23327">
        <ele>348.6</ele>
        <time>2013-02-03T10:57:01Z</time>
      </trkpt>
      <trkpt lat="43.13932" lon="-0.23312">
        <ele>349.4</ele>
        <time>2013-02-03T10:57:06Z</time>
      </trkpt>
      <trkpt lat="43.13933" lon="-0.23301">
        <ele>350.2</ele>
        <time>2013-02-03T10:57:11Z</time>
      </trkpt>
      <trkpt lat="43.13934" lon="-0.23289">
        <ele>351</ele>
        <time>2013-02-03T10:57:16Z</time>
      </trkpt>
      <trkpt lat="43.13934" lon="-0.23274">
        <ele>352</ele>
        <time>2013-02-03T10:57:21Z</time>
      </trkpt>
      <trkpt lat="43.13932" lon="-0.23266">
        <ele>352.5</ele>
        <time>2013-02-03T10:57:26Z</time>
      </trkpt>
      <trkpt lat="43.1393" lon="-0.23257">
        <ele>353.2</ele>
        <time>2013-02-03T10:57:31Z</time>
      </trkpt>
      <trkpt lat="43.13929" lon="-0.23252">
        <ele>353.6</ele>
        <time>2013-02-03T10:57:36Z</time>
      </trkpt>
      <trkpt lat="43.13929" lon="-0.23245">
        <ele>353.8</ele>
        <time>2013-02-03T10:57:41Z</time>
      </trkpt>
      <trkpt lat="43.13925" lon="-0.2323">
        <ele>355</ele>
        <time>2013-02-03T10:57:46Z</time>
      </trkpt>
      <trkpt lat="43.13922" lon="-0.2322">
        <ele>355.9</ele>
        <time>2013-02-03T10:57:51Z</time>
      </trkpt>
      <trkpt lat="43.13917" lon="-0.23205">
        <ele>357.6</ele>
        <time>2013-02-03T10:57:56Z</time>
      </trkpt>
      <trkpt lat="43.13914" lon="-0.23194">
        <ele>358</ele>
        <time>2013-02-03T10:58:01Z</time>
      </trkpt>
      <trkpt lat="43.13911" lon="-0.23179">
        <ele>358.8</ele>
        <time>2013-02-03T10:58:06Z</time>
      </trkpt>
      <trkpt lat="43.1391" lon="-0.23164">
        <ele>359.6</ele>
        <time>2013-02-03T10:58:11Z</time>
      </trkpt>
      <trkpt lat="43.1391" lon="-0.23151">
        <ele>360.3</ele>
        <time>2013-02-03T10:58:16Z</time>
      </trkpt>
      <trkpt lat="43.13908" lon="-0.23133">
        <ele>361.3</ele>
        <time>2013-02-03T10:58:21Z</time>
      </trkpt>
      <trkpt lat="43.13906" lon="-0.23122">
        <ele>361.7</ele>
        <time>2013-02-03T10:58:26Z</time>
      </trkpt>
      <trkpt lat="43.13908" lon="-0.23105">
        <ele>361.6</ele>
        <time>2013-02-03T10:58:31Z</time>
      </trkpt>
      <trkpt lat="43.13911" lon="-0.2309">
        <ele>361.5</ele>
        <time>2013-02-03T10:58:36Z</time>
      </trkpt>
      <trkpt lat="43.13914" lon="-0.23073">
        <ele>361.9</ele>
        <time>2013-02-03T10:58:41Z</time>
      </trkpt>
      <trkpt lat="43.13914" lon="-0.23052">
        <ele>362.6</ele>
        <time>2013-02-03T10:58:46Z</time>
      </trkpt>
      <trkpt lat="43.13906" lon="-0.2304">
        <ele>361.9</ele>
        <time>2013-02-03T10:58:51Z</time>
      </trkpt>
      <trkpt lat="43.13891" lon="-0.23034">
        <ele>362</ele>
        <time>2013-02-03T10:58:56Z</time>
      </trkpt>
      <trkpt lat="43.13883" lon="-0.23028">
        <ele>361.7</ele>
        <time>2013-02-03T10:59:01Z</time>
      </trkpt>
      <trkpt lat="43.13872" lon="-0.23027">
        <ele>361.2</ele>
        <time>2013-02-03T10:59:06Z</time>
      </trkpt>
      <trkpt lat="43.13857" lon="-0.23028">
        <ele>360.8</ele>
        <time>2013-02-03T10:59:11Z</time>
      </trkpt>
      <trkpt lat="43.13847" lon="-0.23028">
        <ele>360</ele>
        <time>2013-02-03T10:59:16Z</time>
      </trkpt>
      <trkpt lat="43.13831" lon="-0.23028">
        <ele>358.9</ele>
        <time>2013-02-03T10:59:21Z</time>
      </trkpt>
      <trkpt lat="43.13819" lon="-0.23028">
        <ele>358.5</ele>
        <time>2013-02-03T10:59:26Z</time>
      </trkpt>
      <trkpt lat="43.13811" lon="-0.23028">
        <ele>358.2</ele>
        <time>2013-02-03T10:59:31Z</time>
      </trkpt>
      <trkpt lat="43.13795" lon="-0.23026">
        <ele>357.6</ele>
        <time>2013-02-03T10:59:36Z</time>
      </trkpt>
      <trkpt lat="43.13786" lon="-0.23021">
        <ele>356.8</ele>
        <time>2013-02-03T10:59:41Z</time>
      </trkpt>
      <trkpt lat="43.13772" lon="-0.23019">
        <ele>356.2</ele>
        <time>2013-02-03T10:59:46Z</time>
      </trkpt>
      <trkpt lat="43.1376" lon="-0.23017">
        <ele>355</ele>
        <time>2013-02-03T10:59:51Z</time>
      </trkpt>
      <trkpt lat="43.1375" lon="-0.23014">
        <ele>354</ele>
        <time>2013-02-03T10:59:56Z</time>
      </trkpt>
      <trkpt lat="43.13738" lon="-0.23023">
        <ele>352.4</ele>
        <time>2013-02-03T11:00:01Z</time>
      </trkpt>
      <trkpt lat="43.13729" lon="-0.23026">
        <ele>351</ele>
        <time>2013-02-03T11:00:06Z</time>
      </trkpt>
      <trkpt lat="43.13718" lon="-0.23028">
        <ele>348.9</ele>
        <time>2013-02-03T11:00:11Z</time>
      </trkpt>
      <trkpt lat="43.13711" lon="-0.23029">
        <ele>347.3</ele>
        <time>2013-02-03T11:00:16Z</time>
      </trkpt>
      <trkpt lat="43.13702" lon="-0.23031">
        <ele>345.2</ele>
        <time>2013-02-03T11:00:21Z</time>
      </trkpt>
      <trkpt lat="43.13691" lon="-0.23034">
        <ele>343.1</ele>
        <time>2013-02-03T11:00:26Z</time>
      </trkpt>
      <trkpt lat="43.13682" lon="-0.23034">
        <ele>341.8</ele>
        <time>2013-02-03T11:00:31Z</time>
      </trkpt>
      <trkpt lat="43.13667" lon="-0.23035">
        <ele>339.6</ele>
        <time>2013-02-03T11:00:36Z</time>
      </trkpt>
      <trkpt lat="43.13656" lon="-0.23036">
        <ele>338.7</ele>
        <time>2013-02-03T11:00:41Z</time>
      </trkpt>
      <trkpt lat="43.13641" lon="-0.23035">
        <ele>337.4</ele>
        <time>2013-02-03T11:00:46Z</time>
      </trkpt>
      <trkpt lat="43.13625" lon="-0.23035">
        <ele>336.7</ele>
        <time>2013-02-03T11:00:51Z</time>
      </trkpt>
      <trkpt lat="43.13615" lon="-0.23031">
        <ele>336.3</ele>
        <time>2013-02-03T11:00:56Z</time>
      </trkpt>
      <trkpt lat="43.13602" lon="-0.2303">
        <ele>336.7</ele>
        <time>2013-02-03T11:01:01Z</time>
      </trkpt>
      <trkpt lat="43.13594" lon="-0.23028">
        <ele>337.2</ele>
        <time>2013-02-03T11:01:06Z</time>
      </trkpt>
      <trkpt lat="43.13583" lon="-0.23026">
        <ele>337.9</ele>
        <time>2013-02-03T11:01:11Z</time>
      </trkpt>
      <trkpt lat="43.13571" lon="-0.23026">
        <ele>339.5</ele>
        <time>2013-02-03T11:01:16Z</time>
      </trkpt>
      <trkpt lat="43.13564" lon="-0.23025">
        <ele>340.5</ele>
        <time>2013-02-03T11:01:21Z</time>
      </trkpt>
      <trkpt lat="43.13554" lon="-0.23023">
        <ele>341.8</ele>
        <time>2013-02-03T11:01:26Z</time>
      </trkpt>
      <trkpt lat="43.13547" lon="-0.23022">
        <ele>342.5</ele>
        <time>2013-02-03T11:01:31Z</time>
      </trkpt>
      <trkpt lat="43.13537" lon="-0.2302">
        <ele>343.3</ele>
        <time>2013-02-03T11:01:36Z</time>
      </trkpt>
      <trkpt lat="43.13526" lon="-0.23021">
        <ele>344.4</ele>
        <time>2013-02-03T11:01:41Z</time>
      </trkpt>
      <trkpt lat="43.13516" lon="-0.23022">
        <ele>344.8</ele>
        <time>2013-02-03T11:01:46Z</time>
      </trkpt>
      <trkpt lat="43.13506" lon="-0.23023">
        <ele>345.2</ele>
        <time>2013-02-03T11:01:51Z</time>
      </trkpt>
      <trkpt lat="43.13498" lon="-0.23024">
        <ele>345.7</ele>
        <time>2013-02-03T11:01:56Z</time>
      </trkpt>
      <trkpt lat="43.13486" lon="-0.23027">
        <ele>346.8</ele>
        <time>2013-02-03T11:02:01Z</time>
      </trkpt>
      <trkpt lat="43.13473" lon="-0.23029">
        <ele>348</ele>
        <time>2013-02-03T11:02:06Z</time>
      </trkpt>
      <trkpt lat="43.13466" lon="-0.2303">
        <ele>348.5</ele>
        <time>2013-02-03T11:02:11Z</time>
      </trkpt>
      <trkpt lat="43.13456" lon="-0.23032">
        <ele>349.3</ele>
        <time>2013-02-03T11:02:16Z</time>
      </trkpt>
      <trkpt lat="43.13452" lon="-0.23034">
        <ele>349.8</ele>
        <time>2013-02-03T11:02:21Z</time>
      </trkpt>
      <trkpt lat="43.13444" lon="-0.23033">
        <ele>350.1</ele>
        <time>2013-02-03T11:02:26Z</time>
      </trkpt>
      <trkpt lat="43.13439" lon="-0.23035">
        <ele>350.7</ele>
        <time>2013-02-03T11:02:31Z</time>
      </trkpt>
      <trkpt lat="43.13439" lon="-0.23033">
        <ele>350.4</ele>
        <time>2013-02-03T11:02:36Z</time>
      </trkpt>
      <trkpt lat="43.13434" lon="-0.23031">
        <ele>350</ele>
        <time>2013-02-03T11:02:41Z</time>
      </trkpt>
      <trkpt lat="43.13429" lon="-0.2303">
        <ele>349.7</ele>
        <time>2013-02-03T11:02:46Z</time>
      </trkpt>
      <trkpt lat="43.1342" lon="-0.23034">
        <ele>351.3</ele>
        <time>2013-02-03T11:02:51Z</time>
      </trkpt>
      <trkpt lat="43.13413" lon="-0.23035">
        <ele>352.4</ele>
        <time>2013-02-03T11:02:56Z</time>
      </trkpt>
      <trkpt lat="43.13407" lon="-0.23034">
        <ele>353</ele>
        <time>2013-02-03T11:03:01Z</time>
      </trkpt>
      <trkpt lat="43.13396" lon="-0.23032">
        <ele>354.2</ele>
        <time>2013-02-03T11:03:06Z</time>
      </trkpt>
      <trkpt lat="43.13389" lon="-0.23031">
        <ele>355.3</ele>
        <time>2013-02-03T11:03:11Z</time>
      </trkpt>
      <trkpt lat="43.13379" lon="-0.2303">
        <ele>357.2</ele>
        <time>2013-02-03T11:03:16Z</time>
      </trkpt>
      <trkpt lat="43.13372" lon="-0.23027">
        <ele>358.1</ele>
        <time>2013-02-03T11:03:21Z</time>
      </trkpt>
      <trkpt lat="43.13365" lon="-0.23028">
        <ele>360.1</ele>
        <time>2013-02-03T11:03:26Z</time>
      </trkpt>
      <trkpt lat="43.13354" lon="-0.23026">
        <ele>361.5</ele>
        <time>2013-02-03T11:03:31Z</time>
      </trkpt>
      <trkpt lat="43.13348" lon="-0.23026">
        <ele>362.7</ele>
        <time>2013-02-03T11:03:36Z</time>
      </trkpt>
      <trkpt lat="43.13339" lon="-0.23022">
        <ele>362.7</ele>
        <time>2013-02-03T11:03:41Z</time>
      </trkpt>
      <trkpt lat="43.13335" lon="-0.23016">
        <ele>360.9</ele>
        <time>2013-02-03T11:03:46Z</time>
      </trkpt>
      <trkpt lat="43.13334" lon="-0.23015">
        <ele>361</ele>
        <time>2013-02-03T11:03:51Z</time>
      </trkpt>
      <trkpt lat="43.13324" lon="-0.23018">
        <ele>364.5</ele>
        <time>2013-02-03T11:03:56Z</time>
      </trkpt>
      <trkpt lat="43.13317" lon="-0.2302">
        <ele>366.9</ele>
        <time>2013-02-03T11:04:01Z</time>
      </trkpt>
      <trkpt lat="43.13307" lon="-0.23018">
        <ele>369.2</ele>
        <time>2013-02-03T11:04:06Z</time>
      </trkpt>
      <trkpt lat="43.13301" lon="-0.23018">
        <ele>370.4</ele>
        <time>2013-02-03T11:04:11Z</time>
      </trkpt>
      <trkpt lat="43.13306" lon="-0.23027">
        <ele>371.8</ele>
        <time>2013-02-03T11:04:16Z</time>
      </trkpt>
      <trkpt lat="43.13308" lon="-0.23036">
        <ele>372.7</ele>
        <time>2013-02-03T11:04:21Z</time>
      </trkpt>
      <trkpt lat="43.13307" lon="-0.2304">
        <ele>373.7</ele>
        <time>2013-02-03T11:04:26Z</time>
      </trkpt>
      <trkpt lat="43.13307" lon="-0.23051">
        <ele>375.3</ele>
        <time>2013-02-03T11:04:31Z</time>
      </trkpt>
      <trkpt lat="43.13306" lon="-0.23058">
        <ele>376</ele>
        <time>2013-02-03T11:04:36Z</time>
      </trkpt>
      <trkpt lat="43.13306" lon="-0.23063">
        <ele>376</ele>
        <time>2013-02-03T11:04:41Z</time>
      </trkpt>
      <trkpt lat="43.13307" lon="-0.23071">
        <ele>376</ele>
        <time>2013-02-03T11:04:46Z</time>
      </trkpt>
      <trkpt lat="43.13307" lon="-0.23079">
        <ele>376.1</ele>
        <time>2013-02-03T11:04:51Z</time>
      </trkpt>
      <trkpt lat="43.1331" lon="-0.23096">
        <ele>375.4</ele>
        <time>2013-02-03T11:04:56Z</time>
      </trkpt>
      <trkpt lat="43.13311" lon="-0.23111">
        <ele>374.4</ele>
        <time>2013-02-03T11:05:01Z</time>
      </trkpt>
      <trkpt lat="43.13314" lon="-0.23128">
        <ele>372.5</ele>
        <time>2013-02-03T11:05:06Z</time>
      </trkpt>
      <trkpt lat="43.13317" lon="-0.23147">
        <ele>370.5</ele>
        <time>2013-02-03T11:05:11Z</time>
      </trkpt>
      <trkpt lat="43.13318" lon="-0.23156">
        <ele>369.4</ele>
        <time>2013-02-03T11:05:16Z</time>
      </trkpt>
      <trkpt lat="43.13318" lon="-0.23176">
        <ele>366.1</ele>
        <time>2013-02-03T11:05:21Z</time>
      </trkpt>
      <trkpt lat="43.13319" lon="-0.23186">
        <ele>364.4</ele>
        <time>2013-02-03T11:05:26Z</time>
      </trkpt>
      <trkpt lat="43.1332" lon="-0.23205">
        <ele>361.6</ele>
        <time>2013-02-03T11:05:31Z</time>
      </trkpt>
      <trkpt lat="43.13321" lon="-0.23228">
        <ele>358.2</ele>
        <time>2013-02-03T11:05:36Z</time>
      </trkpt>
      <trkpt lat="43.13321" lon="-0.2324">
        <ele>356.2</ele>
        <time>2013-02-03T11:05:41Z</time>
      </trkpt>
      <trkpt lat="43.1332" lon="-0.23261">
        <ele>352.8</ele>
        <time>2013-02-03T11:05:46Z</time>
      </trkpt>
      <trkpt lat="43.13322" lon="-0.23272">
        <ele>351</ele>
        <time>2013-02-03T11:05:51Z</time>
      </trkpt>
      <trkpt lat="43.1332" lon="-0.23288">
        <ele>349.1</ele>
        <time>2013-02-03T11:05:56Z</time>
      </trkpt>
      <trkpt lat="43.13321" lon="-0.23305">
        <ele>347.5</ele>
        <time>2013-02-03T11:06:01Z</time>
      </trkpt>
      <trkpt lat="43.1332" lon="-0.23315">
        <ele>346.1</ele>
        <time>2013-02-03T11:06:06Z</time>
      </trkpt>
      <trkpt lat="43.1332" lon="-0.23332">
        <ele>343.7</ele>
        <time>2013-02-03T11:06:11Z</time>
      </trkpt>
      <trkpt lat="43.13322" lon="-0.23341">
        <ele>342.2</ele>
        <time>2013-02-03T11:06:16Z</time>
      </trkpt>
      <trkpt lat="43.1331" lon="-0.23347">
        <ele>341.8</ele>
        <time>2013-02-03T11:06:21Z</time>
      </trkpt>
      <trkpt lat="43.13296" lon="-0.23347">
        <ele>341.1</ele>
        <time>2013-02-03T11:06:26Z</time>
      </trkpt>
      <trkpt lat="43.13287" lon="-0.23354">
        <ele>339.5</ele>
        <time>2013-02-03T11:06:31Z</time>
      </trkpt>
      <trkpt lat="43.13285" lon="-0.23377">
        <ele>337.1</ele>
        <time>2013-02-03T11:06:36Z</time>
      </trkpt>
      <trkpt lat="43.13286" lon="-0.23392">
        <ele>335.6</ele>
        <time>2013-02-03T11:06:41Z</time>
      </trkpt>
      <trkpt lat="43.13289" lon="-0.23415">
        <ele>332.8</ele>
        <time>2013-02-03T11:06:46Z</time>
      </trkpt>
      <trkpt lat="43.13293" lon="-0.23432">
        <ele>328.3</ele>
        <time>2013-02-03T11:06:51Z</time>
      </trkpt>
      <trkpt lat="43.13296" lon="-0.23446">
        <ele>324.5</ele>
        <time>2013-02-03T11:06:56Z</time>
      </trkpt>
      <trkpt lat="43.13297" lon="-0.23467">
        <ele>318.3</ele>
        <time>2013-02-03T11:07:01Z</time>
      </trkpt>
      <trkpt lat="43.13298" lon="-0.2348">
        <ele>315.2</ele>
        <time>2013-02-03T11:07:06Z</time>
      </trkpt>
      <trkpt lat="43.13286" lon="-0.23477">
        <ele>315.3</ele>
        <time>2013-02-03T11:07:11Z</time>
      </trkpt>
      <trkpt lat="43.13275" lon="-0.2347">
        <ele>316.4</ele>
        <time>2013-02-03T11:07:16Z</time>
      </trkpt>
      <trkpt lat="43.13267" lon="-0.23468">
        <ele>316.2</ele>
        <time>2013-02-03T11:07:21Z</time>
      </trkpt>
      <trkpt lat="43.13254" lon="-0.23462">
        <ele>316.1</ele>
        <time>2013-02-03T11:07:26Z</time>
      </trkpt>
      <trkpt lat="43.13246" lon="-0.23455">
        <ele>316.8</ele>
        <time>2013-02-03T11:07:31Z</time>
      </trkpt>
      <trkpt lat="43.13243" lon="-0.23436">
        <ele>320.9</ele>
        <time>2013-02-03T11:07:36Z</time>
      </trkpt>
      <trkpt lat="43.13241" lon="-0.23417">
        <ele>325</ele>
        <time>2013-02-03T11:07:41Z</time>
      </trkpt>
      <trkpt lat="43.13235" lon="-0.23405">
        <ele>325</ele>
        <time>2013-02-03T11:07:46Z</time>
      </trkpt>
      <trkpt lat="43.13225" lon="-0.23418">
        <ele>321.3</ele>
        <time>2013-02-03T11:07:51Z</time>
      </trkpt>
      <trkpt lat="43.13222" lon="-0.23426">
        <ele>319.4</ele>
        <time>2013-02-03T11:07:56Z</time>
      </trkpt>
      <trkpt lat="43.13211" lon="-0.23443">
        <ele>315.8</ele>
        <time>2013-02-03T11:08:01Z</time>
      </trkpt>
      <trkpt lat="43.13204" lon="-0.23453">
        <ele>314</ele>
        <time>2013-02-03T11:08:06Z</time>
      </trkpt>
      <trkpt lat="43.13194" lon="-0.23461">
        <ele>312.7</ele>
        <time>2013-02-03T11:08:11Z</time>
      </trkpt>
      <trkpt lat="43.13178" lon="-0.2347">
        <ele>311.9</ele>
        <time>2013-02-03T11:08:16Z</time>
      </trkpt>
      <trkpt lat="43.13168" lon="-0.23476">
        <ele>311.7</ele>
        <time>2013-02-03T11:08:21Z</time>
      </trkpt>
      <trkpt lat="43.13155" lon="-0.2348">
        <ele>312.3</ele>
        <time>2013-02-03T11:08:26Z</time>
      </trkpt>
      <trkpt lat="43.13149" lon="-0.23484">
        <ele>312.4</ele>
        <time>2013-02-03T11:08:31Z</time>
      </trkpt>
      <trkpt lat="43.13144" lon="-0.23488">
        <ele>312.5</ele>
        <time>2013-02-03T11:08:36Z</time>
      </trkpt>
      <trkpt lat="43.13137" lon="-0.23491">
        <ele>312.8</ele>
        <time>2013-02-03T11:08:41Z</time>
      </trkpt>
      <trkpt lat="43.13131" lon="-0.23494">
        <ele>312.7</ele>
        <time>2013-02-03T11:08:46Z</time>
      </trkpt>
      <trkpt lat="43.13128" lon="-0.23506">
        <ele>312.4</ele>
        <time>2013-02-03T11:08:51Z</time>
      </trkpt>
      <trkpt lat="43.13129" lon="-0.23512">
        <ele>312.5</ele>
        <time>2013-02-03T11:08:56Z</time>
      </trkpt>
      <trkpt lat="43.13128" lon="-0.23516">
        <ele>312.5</ele>
        <time>2013-02-03T11:09:01Z</time>
      </trkpt>
      <trkpt lat="43.13124" lon="-0.23525">
        <ele>312.5</ele>
        <time>2013-02-03T11:09:06Z</time>
      </trkpt>
      <trkpt lat="43.13122" lon="-0.23534">
        <ele>312.8</ele>
        <time>2013-02-03T11:09:11Z</time>
      </trkpt>
      <trkpt lat="43.13119" lon="-0.23549">
        <ele>313.8</ele>
        <time>2013-02-03T11:09:16Z</time>
      </trkpt>
      <trkpt lat="43.13116" lon="-0.23557">
        <ele>314.3</ele>
        <time>2013-02-03T11:09:21Z</time>
      </trkpt>
      <trkpt lat="43.1311" lon="-0.23565">
        <ele>315.2</ele>
        <time>2013-02-03T11:09:26Z</time>
      </trkpt>
      <trkpt lat="43.13105" lon="-0.23578">
        <ele>316.4</ele>
        <time>2013-02-03T11:09:31Z</time>
      </trkpt>
      <trkpt lat="43.13102" lon="-0.23587">
        <ele>317.2</ele>
        <time>2013-02-03T11:09:36Z</time>
      </trkpt>
      <trkpt lat="43.13095" lon="-0.23598">
        <ele>318</ele>
        <time>2013-02-03T11:09:41Z</time>
      </trkpt>
      <trkpt lat="43.13085" lon="-0.23603">
        <ele>317.7</ele>
        <time>2013-02-03T11:09:46Z</time>
      </trkpt>
      <trkpt lat="43.13074" lon="-0.23609">
        <ele>318.3</ele>
        <time>2013-02-03T11:09:51Z</time>
      </trkpt>
      <trkpt lat="43.13063" lon="-0.23609">
        <ele>317.9</ele>
        <time>2013-02-03T11:09:56Z</time>
      </trkpt>
      <trkpt lat="43.13055" lon="-0.23608">
        <ele>317.4</ele>
        <time>2013-02-03T11:10:01Z</time>
      </trkpt>
      <trkpt lat="43.13045" lon="-0.23614">
        <ele>318.2</ele>
        <time>2013-02-03T11:10:06Z</time>
      </trkpt>
      <trkpt lat="43.13044" lon="-0.23623">
        <ele>319.5</ele>
        <time>2013-02-03T11:10:11Z</time>
      </trkpt>
      <trkpt lat="43.13042" lon="-0.23635">
        <ele>321.4</ele>
        <time>2013-02-03T11:10:16Z</time>
      </trkpt>
      <trkpt lat="43.13039" lon="-0.23644">
        <ele>322.6</ele>
        <time>2013-02-03T11:10:21Z</time>
      </trkpt>
      <trkpt lat="43.13038" lon="-0.2365">
        <ele>323.6</ele>
        <time>2013-02-03T11:10:26Z</time>
      </trkpt>
      <trkpt lat="43.13035" lon="-0.23661">
        <ele>325.2</ele>
        <time>2013-02-03T11:10:31Z</time>
      </trkpt>
      <trkpt lat="43.13033" lon="-0.23666">
        <ele>326</ele>
        <time>2013-02-03T11:10:36Z</time>
      </trkpt>
      <trkpt lat="43.13028" lon="-0.23672">
        <ele>327.2</ele>
        <time>2013-02-03T11:10:41Z</time>
      </trkpt>
      <trkpt lat="43.13023" lon="-0.2367">
        <ele>327</ele>
        <time>2013-02-03T11:10:46Z</time>
      </trkpt>
      <trkpt lat="43.13019" lon="-0.23668">
        <ele>326.9</ele>
        <time>2013-02-03T11:10:51Z</time>
      </trkpt>
      <trkpt lat="43.13012" lon="-0.23661">
        <ele>326.3</ele>
        <time>2013-02-03T11:10:56Z</time>
      </trkpt>
      <trkpt lat="43.13007" lon="-0.23659">
        <ele>326.5</ele>
        <time>2013-02-03T11:11:01Z</time>
      </trkpt>
      <trkpt lat="43.13004" lon="-0.23659">
        <ele>326.9</ele>
        <time>2013-02-03T11:11:06Z</time>
      </trkpt>
      <trkpt lat="43.12997" lon="-0.23659">
        <ele>327.4</ele>
        <time>2013-02-03T11:11:11Z</time>
      </trkpt>
      <trkpt lat="43.12997" lon="-0.23659">
        <ele>327.4</ele>
        <time>2013-02-03T11:11:16Z</time>
      </trkpt>
      <trkpt lat="43.12985" lon="-0.23658">
        <ele>328.2</ele>
        <time>2013-02-03T11:11:21Z</time>
      </trkpt>
      <trkpt lat="43.12978" lon="-0.23652">
        <ele>328</ele>
        <time>2013-02-03T11:11:26Z</time>
      </trkpt>
      <trkpt lat="43.12977" lon="-0.23653">
        <ele>328.1</ele>
        <time>2013-02-03T11:11:31Z</time>
      </trkpt>
      <trkpt lat="43.12971" lon="-0.23652">
        <ele>328.4</ele>
        <time>2013-02-03T11:11:36Z</time>
      </trkpt>
      <trkpt lat="43.12967" lon="-0.2365">
        <ele>328.5</ele>
        <time>2013-02-03T11:11:41Z</time>
      </trkpt>
      <trkpt lat="43.12961" lon="-0.23647">
        <ele>328.4</ele>
        <time>2013-02-03T11:11:46Z</time>
      </trkpt>
      <trkpt lat="43.12957" lon="-0.23643">
        <ele>328.1</ele>
        <time>2013-02-03T11:11:51Z</time>
      </trkpt>
      <trkpt lat="43.12953" lon="-0.2364">
        <ele>327.8</ele>
        <time>2013-02-03T11:11:56Z</time>
      </trkpt>
      <trkpt lat="43.12949" lon="-0.23637">
        <ele>327.4</ele>
        <time>2013-02-03T11:12:01Z</time>
      </trkpt>
      <trkpt lat="43.12944" lon="-0.23635">
        <ele>327.2</ele>
        <time>2013-02-03T11:12:06Z</time>
      </trkpt>
      <trkpt lat="43.12939" lon="-0.23633">
        <ele>326.3</ele>
        <time>2013-02-03T11:12:11Z</time>
      </trkpt>
      <trkpt lat="43.12936" lon="-0.23631">
        <ele>325.7</ele>
        <time>2013-02-03T11:12:16Z</time>
      </trkpt>
      <trkpt lat="43.12935" lon="-0.23628">
        <ele>325.1</ele>
        <time>2013-02-03T11:12:21Z</time>
      </trkpt>
      <trkpt lat="43.12937" lon="-0.23625">
        <ele>324.6</ele>
        <time>2013-02-03T11:12:26Z</time>
      </trkpt>
      <trkpt lat="43.12936" lon="-0.23623">
        <ele>324.1</ele>
        <time>2013-02-03T11:12:31Z</time>
      </trkpt>
      <trkpt lat="43.12926" lon="-0.23619">
        <ele>322.8</ele>
        <time>2013-02-03T11:12:36Z</time>
      </trkpt>
      <trkpt lat="43.12915" lon="-0.23619">
        <ele>322.2</ele>
        <time>2013-02-03T11:12:41Z</time>
      </trkpt>
      <trkpt lat="43.129" lon="-0.2362">
        <ele>320.4</ele>
        <time>2013-02-03T11:12:46Z</time>
      </trkpt>
      <trkpt lat="43.1289" lon="-0.23622">
        <ele>319.4</ele>
        <time>2013-02-03T11:12:51Z</time>
      </trkpt>
      <trkpt lat="43.12874" lon="-0.23618">
        <ele>320.4</ele>
        <time>2013-02-03T11:12:56Z</time>
      </trkpt>
      <trkpt lat="43.12862" lon="-0.23607">
        <ele>320.5</ele>
        <time>2013-02-03T11:13:01Z</time>
      </trkpt>
      <trkpt lat="43.12853" lon="-0.23597">
        <ele>319.7</ele>
        <time>2013-02-03T11:13:06Z</time>
      </trkpt>
      <trkpt lat="43.12844" lon="-0.23579">
        <ele>319.3</ele>
        <time>2013-02-03T11:13:11Z</time>
      </trkpt>
      <trkpt lat="43.12841" lon="-0.23566">
        <ele>319.7</ele>
        <time>2013-02-03T11:13:16Z</time>
      </trkpt>
      <trkpt lat="43.12835" lon="-0.23553">
        <ele>320.7</ele>
        <time>2013-02-03T11:13:21Z</time>
      </trkpt>
      <trkpt lat="43.12826" lon="-0.23546">
        <ele>321.9</ele>
        <time>2013-02-03T11:13:26Z</time>
      </trkpt>
      <trkpt lat="43.12818" lon="-0.23546">
        <ele>323.5</ele>
        <time>2013-02-03T11:13:31Z</time>
      </trkpt>
      <trkpt lat="43.12805" lon="-0.23544">
        <ele>325.6</ele>
        <time>2013-02-03T11:13:36Z</time>
      </trkpt>
      <trkpt lat="43.12797" lon="-0.23537">
        <ele>326.3</ele>
        <time>2013-02-03T11:13:41Z</time>
      </trkpt>
      <trkpt lat="43.12787" lon="-0.23529">
        <ele>327.1</ele>
        <time>2013-02-03T11:13:46Z</time>
      </trkpt>
      <trkpt lat="43.12773" lon="-0.23523">
        <ele>327.8</ele>
        <time>2013-02-03T11:13:51Z</time>
      </trkpt>
      <trkpt lat="43.12764" lon="-0.23518">
        <ele>328.1</ele>
        <time>2013-02-03T11:13:56Z</time>
      </trkpt>
      <trkpt lat="43.12752" lon="-0.23509">
        <ele>328.5</ele>
        <time>2013-02-03T11:14:01Z</time>
      </trkpt>
      <trkpt lat="43.12743" lon="-0.23505">
        <ele>329.4</ele>
        <time>2013-02-03T11:14:06Z</time>
      </trkpt>
      <trkpt lat="43.12733" lon="-0.23499">
        <ele>330.3</ele>
        <time>2013-02-03T11:14:11Z</time>
      </trkpt>
      <trkpt lat="43.12723" lon="-0.23494">
        <ele>331</ele>
        <time>2013-02-03T11:14:16Z</time>
      </trkpt>
      <trkpt lat="43.12712" lon="-0.23491">
        <ele>330.2</ele>
        <time>2013-02-03T11:14:21Z</time>
      </trkpt>
      <trkpt lat="43.12698" lon="-0.23494">
        <ele>330.1</ele>
        <time>2013-02-03T11:14:26Z</time>
      </trkpt>
      <trkpt lat="43.12688" lon="-0.23498">
        <ele>328.8</ele>
        <time>2013-02-03T11:14:31Z</time>
      </trkpt>
      <trkpt lat="43.1267" lon="-0.23504">
        <ele>325.8</ele>
        <time>2013-02-03T11:14:36Z</time>
      </trkpt>
      <trkpt lat="43.12656" lon="-0.23506">
        <ele>325.2</ele>
        <time>2013-02-03T11:14:41Z</time>
      </trkpt>
      <trkpt lat="43.12645" lon="-0.23506">
        <ele>324.8</ele>
        <time>2013-02-03T11:14:46Z</time>
      </trkpt>
      <trkpt lat="43.12629" lon="-0.23505">
        <ele>324.7</ele>
        <time>2013-02-03T11:14:51Z</time>
      </trkpt>
      <trkpt lat="43.1262" lon="-0.23503">
        <ele>324.8</ele>
        <time>2013-02-03T11:14:56Z</time>
      </trkpt>
      <trkpt lat="43.12607" lon="-0.23496">
        <ele>324.9</ele>
        <time>2013-02-03T11:15:01Z</time>
      </trkpt>
      <trkpt lat="43.12595" lon="-0.23488">
        <ele>324.9</ele>
        <time>2013-02-03T11:15:06Z</time>
      </trkpt>
      <trkpt lat="43.12583" lon="-0.2348">
        <ele>324.9</ele>
        <time>2013-02-03T11:15:11Z</time>
      </trkpt>
      <trkpt lat="43.1257" lon="-0.23468">
        <ele>325.5</ele>
        <time>2013-02-03T11:15:16Z</time>
      </trkpt>
      <trkpt lat="43.12562" lon="-0.2346">
        <ele>325.6</ele>
        <time>2013-02-03T11:15:21Z</time>
      </trkpt>
      <trkpt lat="43.12553" lon="-0.23456">
        <ele>325.7</ele>
        <time>2013-02-03T11:15:26Z</time>
      </trkpt>
      <trkpt lat="43.12543" lon="-0.23467">
        <ele>327.3</ele>
        <time>2013-02-03T11:15:31Z</time>
      </trkpt>
      <trkpt lat="43.1254" lon="-0.23477">
        <ele>328.7</ele>
        <time>2013-02-03T11:15:36Z</time>
      </trkpt>
      <trkpt lat="43.12537" lon="-0.23493">
        <ele>331</ele>
        <time>2013-02-03T11:15:41Z</time>
      </trkpt>
      <trkpt lat="43.12535" lon="-0.23503">
        <ele>332.4</ele>
        <time>2013-02-03T11:15:46Z</time>
      </trkpt>
      <trkpt lat="43.12531" lon="-0.23517">
        <ele>334.5</ele>
        <time>2013-02-03T11:15:51Z</time>
      </trkpt>
      <trkpt lat="43.12529" lon="-0.23526">
        <ele>335.8</ele>
        <time>2013-02-03T11:15:56Z</time>
      </trkpt>
      <trkpt lat="43.12526" lon="-0.23538">
        <ele>337.3</ele>
        <time>2013-02-03T11:16:01Z</time>
      </trkpt>
      <trkpt lat="43.12523" lon="-0.23553">
        <ele>339.1</ele>
        <time>2013-02-03T11:16:06Z</time>
      </trkpt>
      <trkpt lat="43.1252" lon="-0.23564">
        <ele>339.9</ele>
        <time>2013-02-03T11:16:11Z</time>
      </trkpt>
      <trkpt lat="43.12516" lon="-0.23576">
        <ele>340.8</ele>
        <time>2013-02-03T11:16:16Z</time>
      </trkpt>
      <trkpt lat="43.12512" lon="-0.23592">
        <ele>342.4</ele>
        <time>2013-02-03T11:16:21Z</time>
      </trkpt>
      <trkpt lat="43.1251" lon="-0.23606">
        <ele>344</ele>
        <time>2013-02-03T11:16:26Z</time>
      </trkpt>
      <trkpt lat="43.12509" lon="-0.23623">
        <ele>346.4</ele>
        <time>2013-02-03T11:16:31Z</time>
      </trkpt>
      <trkpt lat="43.12508" lon="-0.23634">
        <ele>348</ele>
        <time>2013-02-03T11:16:36Z</time>
      </trkpt>
      <trkpt lat="43.12508" lon="-0.23649">
        <ele>349.8</ele>
        <time>2013-02-03T11:16:41Z</time>
      </trkpt>
      <trkpt lat="43.12508" lon="-0.23664">
        <ele>351.4</ele>
        <time>2013-02-03T11:16:46Z</time>
      </trkpt>
      <trkpt lat="43.12509" lon="-0.23678">
        <ele>352.4</ele>
        <time>2013-02-03T11:16:51Z</time>
      </trkpt>
      <trkpt lat="43.12511" lon="-0.23695">
        <ele>353.3</ele>
        <time>2013-02-03T11:16:56Z</time>
      </trkpt>
      <trkpt lat="43.12511" lon="-0.23706">
        <ele>354</ele>
        <time>2013-02-03T11:17:01Z</time>
      </trkpt>
      <trkpt lat="43.12514" lon="-0.23723">
        <ele>355</ele>
        <time>2013-02-03T11:17:06Z</time>
      </trkpt>
      <trkpt lat="43.12517" lon="-0.23739">
        <ele>355.4</ele>
        <time>2013-02-03T11:17:11Z</time>
      </trkpt>
      <trkpt lat="43.12518" lon="-0.23756">
        <ele>355.9</ele>
        <time>2013-02-03T11:17:16Z</time>
      </trkpt>
      <trkpt lat="43.12521" lon="-0.23776">
        <ele>356.6</ele>
        <time>2013-02-03T11:17:21Z</time>
      </trkpt>
      <trkpt lat="43.12522" lon="-0.2379">
        <ele>357.4</ele>
        <time>2013-02-03T11:17:26Z</time>
      </trkpt>
      <trkpt lat="43.12524" lon="-0.23807">
        <ele>358.3</ele>
        <time>2013-02-03T11:17:31Z</time>
      </trkpt>
      <trkpt lat="43.12526" lon="-0.23825">
        <ele>358.8</ele>
        <time>2013-02-03T11:17:36Z</time>
      </trkpt>
      <trkpt lat="43.12526" lon="-0.23842">
        <ele>359.3</ele>
        <time>2013-02-03T11:17:41Z</time>
      </trkpt>
      <trkpt lat="43.12528" lon="-0.23862">
        <ele>359.9</ele>
        <time>2013-02-03T11:17:46Z</time>
      </trkpt>
      <trkpt lat="43.12531" lon="-0.23877">
        <ele>359.6</ele>
        <time>2013-02-03T11:17:51Z</time>
      </trkpt>
      <trkpt lat="43.12532" lon="-0.23898">
        <ele>359.4</ele>
        <time>2013-02-03T11:17:56Z</time>
      </trkpt>
      <trkpt lat="43.12534" lon="-0.23911">
        <ele>359.3</ele>
        <time>2013-02-03T11:18:01Z</time>
      </trkpt>
      <trkpt lat="43.12535" lon="-0.23918">
        <ele>359.2</ele>
        <time>2013-02-03T11:18:06Z</time>
      </trkpt>
      <trkpt lat="43.12538" lon="-0.23936">
        <ele>359.7</ele>
        <time>2013-02-03T11:18:11Z</time>
      </trkpt>
      <trkpt lat="43.12541" lon="-0.23956">
        <ele>360.9</ele>
        <time>2013-02-03T11:18:16Z</time>
      </trkpt>
      <trkpt lat="43.12544" lon="-0.2398">
        <ele>362.2</ele>
        <time>2013-02-03T11:18:21Z</time>
      </trkpt>
      <trkpt lat="43.12546" lon="-0.23997">
        <ele>362.6</ele>
        <time>2013-02-03T11:18:26Z</time>
      </trkpt>
      <trkpt lat="43.12549" lon="-0.24019">
        <ele>363.4</ele>
        <time>2013-02-03T11:18:31Z</time>
      </trkpt>
      <trkpt lat="43.12552" lon="-0.24044">
        <ele>364.4</ele>
        <time>2013-02-03T11:18:36Z</time>
      </trkpt>
      <trkpt lat="43.12554" lon="-0.24062">
        <ele>365.1</ele>
        <time>2013-02-03T11:18:41Z</time>
      </trkpt>
      <trkpt lat="43.12554" lon="-0.24085">
        <ele>365.8</ele>
        <time>2013-02-03T11:18:46Z</time>
      </trkpt>
      <trkpt lat="43.12553" lon="-0.24104">
        <ele>365.7</ele>
        <time>2013-02-03T11:18:51Z</time>
      </trkpt>
      <trkpt lat="43.12547" lon="-0.24123">
        <ele>364.6</ele>
        <time>2013-02-03T11:18:56Z</time>
      </trkpt>
      <trkpt lat="43.12541" lon="-0.24139">
        <ele>363.4</ele>
        <time>2013-02-03T11:19:01Z</time>
      </trkpt>
      <trkpt lat="43.12536" lon="-0.24153">
        <ele>361.9</ele>
        <time>2013-02-03T11:19:06Z</time>
      </trkpt>
      <trkpt lat="43.1253" lon="-0.24177">
        <ele>359.9</ele>
        <time>2013-02-03T11:19:11Z</time>
      </trkpt>
      <trkpt lat="43.12526" lon="-0.24192">
        <ele>358.8</ele>
        <time>2013-02-03T11:19:16Z</time>
      </trkpt>
      <trkpt lat="43.1252" lon="-0.24211">
        <ele>357.9</ele>
        <time>2013-02-03T11:19:21Z</time>
      </trkpt>
      <trkpt lat="43.12512" lon="-0.24231">
        <ele>357.2</ele>
        <time>2013-02-03T11:19:26Z</time>
      </trkpt>
      <trkpt lat="43.12507" lon="-0.24244">
        <ele>357.4</ele>
        <time>2013-02-03T11:19:31Z</time>
      </trkpt>
      <trkpt lat="43.12498" lon="-0.2426">
        <ele>357.2</ele>
        <time>2013-02-03T11:19:36Z</time>
      </trkpt>
      <trkpt lat="43.1249" lon="-0.24273">
        <ele>357.1</ele>
        <time>2013-02-03T11:19:41Z</time>
      </trkpt>
      <trkpt lat="43.1248" lon="-0.24289">
        <ele>357.2</ele>
        <time>2013-02-03T11:19:46Z</time>
      </trkpt>
      <trkpt lat="43.12474" lon="-0.243">
        <ele>357.6</ele>
        <time>2013-02-03T11:19:51Z</time>
      </trkpt>
      <trkpt lat="43.12469" lon="-0.24311">
        <ele>357.6</ele>
        <time>2013-02-03T11:19:56Z</time>
      </trkpt>
      <trkpt lat="43.12464" lon="-0.24326">
        <ele>356.6</ele>
        <time>2013-02-03T11:20:01Z</time>
      </trkpt>
      <trkpt lat="43.12456" lon="-0.24344">
        <ele>354.6</ele>
        <time>2013-02-03T11:20:06Z</time>
      </trkpt>
      <trkpt lat="43.12445" lon="-0.24363">
        <ele>351.7</ele>
        <time>2013-02-03T11:20:11Z</time>
      </trkpt>
      <trkpt lat="43.12439" lon="-0.24374">
        <ele>350.7</ele>
        <time>2013-02-03T11:20:16Z</time>
      </trkpt>
      <trkpt lat="43.12431" lon="-0.24388">
        <ele>350</ele>
        <time>2013-02-03T11:20:21Z</time>
      </trkpt>
      <trkpt lat="43.12423" lon="-0.24405">
        <ele>349.6</ele>
        <time>2013-02-03T11:20:26Z</time>
      </trkpt>
      <trkpt lat="43.12415" lon="-0.24416">
        <ele>349.3</ele>
        <time>2013-02-03T11:20:31Z</time>
      </trkpt>
      <trkpt lat="43.12405" lon="-0.24434">
        <ele>347.7</ele>
        <time>2013-02-03T11:20:36Z</time>
      </trkpt>
      <trkpt lat="43.124" lon="-0.24444">
        <ele>346.3</ele>
        <time>2013-02-03T11:20:41Z</time>
      </trkpt>
      <trkpt lat="43.12395" lon="-0.24455">
        <ele>345.3</ele>
        <time>2013-02-03T11:20:46Z</time>
      </trkpt>
      <trkpt lat="43.12382" lon="-0.24464">
        <ele>345.2</ele>
        <time>2013-02-03T11:20:51Z</time>
      </trkpt>
      <trkpt lat="43.12371" lon="-0.24473">
        <ele>343.9</ele>
        <time>2013-02-03T11:20:56Z</time>
      </trkpt>
      <trkpt lat="43.12363" lon="-0.24487">
        <ele>341.8</ele>
        <time>2013-02-03T11:21:01Z</time>
      </trkpt>
      <trkpt lat="43.12355" lon="-0.24503">
        <ele>340.7</ele>
        <time>2013-02-03T11:21:06Z</time>
      </trkpt>
      <trkpt lat="43.1235" lon="-0.24516">
        <ele>338.3</ele>
        <time>2013-02-03T11:21:11Z</time>
      </trkpt>
      <trkpt lat="43.12344" lon="-0.24528">
        <ele>336.6</ele>
        <time>2013-02-03T11:21:16Z</time>
      </trkpt>
      <trkpt lat="43.12337" lon="-0.24539">
        <ele>334.6</ele>
        <time>2013-02-03T11:21:21Z</time>
      </trkpt>
      <trkpt lat="43.12328" lon="-0.24553">
        <ele>331.3</ele>
        <time>2013-02-03T11:21:26Z</time>
      </trkpt>
      <trkpt lat="43.1232" lon="-0.24565">
        <ele>330.3</ele>
        <time>2013-02-03T11:21:31Z</time>
      </trkpt>
      <trkpt lat="43.12315" lon="-0.2458">
        <ele>327.7</ele>
        <time>2013-02-03T11:21:36Z</time>
      </trkpt>
      <trkpt lat="43.12308" lon="-0.246">
        <ele>323.3</ele>
        <time>2013-02-03T11:21:41Z</time>
      </trkpt>
      <trkpt lat="43.12302" lon="-0.24612">
        <ele>321.7</ele>
        <time>2013-02-03T11:21:46Z</time>
      </trkpt>
      <trkpt lat="43.12293" lon="-0.24626">
        <ele>322.6</ele>
        <time>2013-02-03T11:21:51Z</time>
      </trkpt>
      <trkpt lat="43.12288" lon="-0.24644">
        <ele>319.9</ele>
        <time>2013-02-03T11:21:56Z</time>
      </trkpt>
      <trkpt lat="43.1228" lon="-0.24654">
        <ele>319.1</ele>
        <time>2013-02-03T11:22:01Z</time>
      </trkpt>
      <trkpt lat="43.12264" lon="-0.2467">
        <ele>319</ele>
        <time>2013-02-03T11:22:06Z</time>
      </trkpt>
      <trkpt lat="43.12254" lon="-0.24679">
        <ele>319.6</ele>
        <time>2013-02-03T11:22:11Z</time>
      </trkpt>
      <trkpt lat="43.12232" lon="-0.24696">
        <ele>319.4</ele>
        <time>2013-02-03T11:22:16Z</time>
      </trkpt>
      <trkpt lat="43.12224" lon="-0.24705">
        <ele>317.9</ele>
        <time>2013-02-03T11:22:21Z</time>
      </trkpt>
      <trkpt lat="43.12207" lon="-0.24717">
        <ele>317.9</ele>
        <time>2013-02-03T11:22:26Z</time>
      </trkpt>
      <trkpt lat="43.1219" lon="-0.24725">
        <ele>318.8</ele>
        <time>2013-02-03T11:22:31Z</time>
      </trkpt>
      <trkpt lat="43.12174" lon="-0.24732">
        <ele>320.9</ele>
        <time>2013-02-03T11:22:36Z</time>
      </trkpt>
      <trkpt lat="43.12162" lon="-0.24739">
        <ele>319.9</ele>
        <time>2013-02-03T11:22:41Z</time>
      </trkpt>
      <trkpt lat="43.12166" lon="-0.24737">
        <ele>320</ele>
        <time>2013-02-03T11:22:46Z</time>
      </trkpt>
      <trkpt lat="43.12178" lon="-0.2473">
        <ele>320.8</ele>
        <time>2013-02-03T11:22:51Z</time>
      </trkpt>
      <trkpt lat="43.12189" lon="-0.24723">
        <ele>319.8</ele>
        <time>2013-02-03T11:22:56Z</time>
      </trkpt>
      <trkpt lat="43.12199" lon="-0.24716">
        <ele>320.4</ele>
        <time>2013-02-03T11:23:01Z</time>
      </trkpt>
      <trkpt lat="43.12212" lon="-0.24707">
        <ele>320.8</ele>
        <time>2013-02-03T11:23:06Z</time>
      </trkpt>
      <trkpt lat="43.12221" lon="-0.247">
        <ele>320.1</ele>
        <time>2013-02-03T11:23:11Z</time>
      </trkpt>
      <trkpt lat="43.12236" lon="-0.2469">
        <ele>320.9</ele>
        <time>2013-02-03T11:23:16Z</time>
      </trkpt>
      <trkpt lat="43.1225" lon="-0.24679">
        <ele>320.5</ele>
        <time>2013-02-03T11:23:21Z</time>
      </trkpt>
      <trkpt lat="43.1226" lon="-0.24665">
        <ele>321.1</ele>
        <time>2013-02-03T11:23:26Z</time>
      </trkpt>
      <trkpt lat="43.12272" lon="-0.24655">
        <ele>321.2</ele>
        <time>2013-02-03T11:23:31Z</time>
      </trkpt>
      <trkpt lat="43.12281" lon="-0.24648">
        <ele>320.7</ele>
        <time>2013-02-03T11:23:36Z</time>
      </trkpt>
      <trkpt lat="43.12296" lon="-0.24639">
        <ele>318.7</ele>
        <time>2013-02-03T11:23:41Z</time>
      </trkpt>
      <trkpt lat="43.12308" lon="-0.24634">
        <ele>316.6</ele>
        <time>2013-02-03T11:23:46Z</time>
      </trkpt>
      <trkpt lat="43.12322" lon="-0.24627">
        <ele>316.6</ele>
        <time>2013-02-03T11:23:51Z</time>
      </trkpt>
      <trkpt lat="43.12336" lon="-0.24626">
        <ele>315.9</ele>
        <time>2013-02-03T11:23:56Z</time>
      </trkpt>
      <trkpt lat="43.12352" lon="-0.24633">
        <ele>314.7</ele>
        <time>2013-02-03T11:24:01Z</time>
      </trkpt>
      <trkpt lat="43.12367" lon="-0.24645">
        <ele>314.1</ele>
        <time>2013-02-03T11:24:06Z</time>
      </trkpt>
      <trkpt lat="43.12377" lon="-0.24654">
        <ele>314.1</ele>
        <time>2013-02-03T11:24:11Z</time>
      </trkpt>
      <trkpt lat="43.12387" lon="-0.24667">
        <ele>312.6</ele>
        <time>2013-02-03T11:24:16Z</time>
      </trkpt>
      <trkpt lat="43.12398" lon="-0.24686">
        <ele>313.2</ele>
        <time>2013-02-03T11:24:21Z</time>
      </trkpt>
      <trkpt lat="43.12405" lon="-0.24698">
        <ele>312.9</ele>
        <time>2013-02-03T11:24:26Z</time>
      </trkpt>
      <trkpt lat="43.12411" lon="-0.24712">
        <ele>312.2</ele>
        <time>2013-02-03T11:24:31Z</time>
      </trkpt>
      <trkpt lat="43.12416" lon="-0.24732">
        <ele>309.9</ele>
        <time>2013-02-03T11:24:36Z</time>
      </trkpt>
      <trkpt lat="43.12421" lon="-0.24747">
        <ele>311</ele>
        <time>2013-02-03T11:24:41Z</time>
      </trkpt>
      <trkpt lat="43.12427" lon="-0.24766">
        <ele>312.5</ele>
        <time>2013-02-03T11:24:46Z</time>
      </trkpt>
      <trkpt lat="43.12432" lon="-0.24779">
        <ele>313.4</ele>
        <time>2013-02-03T11:24:51Z</time>
      </trkpt>
      <trkpt lat="43.12438" lon="-0.24801">
        <ele>311.7</ele>
        <time>2013-02-03T11:24:56Z</time>
      </trkpt>
      <trkpt lat="43.12442" lon="-0.24817">
        <ele>310.9</ele>
        <time>2013-02-03T11:25:01Z</time>
      </trkpt>
      <trkpt lat="43.12449" lon="-0.24836">
        <ele>311.1</ele>
        <time>2013-02-03T11:25:06Z</time>
      </trkpt>
      <trkpt lat="43.12457" lon="-0.24854">
        <ele>313.1</ele>
        <time>2013-02-03T11:25:11Z</time>
      </trkpt>
      <trkpt lat="43.12466" lon="-0.24866">
        <ele>315.7</ele>
        <time>2013-02-03T11:25:16Z</time>
      </trkpt>
      <trkpt lat="43.12475" lon="-0.2488">
        <ele>317.4</ele>
        <time>2013-02-03T11:25:21Z</time>
      </trkpt>
      <trkpt lat="43.12483" lon="-0.24891">
        <ele>317.4</ele>
        <time>2013-02-03T11:25:26Z</time>
      </trkpt>
      <trkpt lat="43.12496" lon="-0.249">
        <ele>316.8</ele>
        <time>2013-02-03T11:25:31Z</time>
      </trkpt>
      <trkpt lat="43.12509" lon="-0.24903">
        <ele>316.4</ele>
        <time>2013-02-03T11:25:36Z</time>
      </trkpt>
      <trkpt lat="43.12517" lon="-0.24904">
        <ele>316.1</ele>
        <time>2013-02-03T11:25:41Z</time>
      </trkpt>
      <trkpt lat="43.12535" lon="-0.24905">
        <ele>316.1</ele>
        <time>2013-02-03T11:25:46Z</time>
      </trkpt>
      <trkpt lat="43.1255" lon="-0.24906">
        <ele>316.3</ele>
        <time>2013-02-03T11:25:51Z</time>
      </trkpt>
      <trkpt lat="43.12563" lon="-0.24907">
        <ele>316.7</ele>
        <time>2013-02-03T11:25:56Z</time>
      </trkpt>
      <trkpt lat="43.12577" lon="-0.24908">
        <ele>316.9</ele>
        <time>2013-02-03T11:26:01Z</time>
      </trkpt>
      <trkpt lat="43.12589" lon="-0.24906">
        <ele>317.8</ele>
        <time>2013-02-03T11:26:06Z</time>
      </trkpt>
      <trkpt lat="43.12606" lon="-0.24905">
        <ele>318.1</ele>
        <time>2013-02-03T11:26:11Z</time>
      </trkpt>
      <trkpt lat="43.12617" lon="-0.24908">
        <ele>316.4</ele>
        <time>2013-02-03T11:26:16Z</time>
      </trkpt>
      <trkpt lat="43.12638" lon="-0.24909">
        <ele>314.6</ele>
        <time>2013-02-03T11:26:21Z</time>
      </trkpt>
      <trkpt lat="43.12653" lon="-0.2491">
        <ele>313</ele>
        <time>2013-02-03T11:26:26Z</time>
      </trkpt>
      <trkpt lat="43.12663" lon="-0.2491">
        <ele>312</ele>
        <time>2013-02-03T11:26:31Z</time>
      </trkpt>
      <trkpt lat="43.1268" lon="-0.2491">
        <ele>311.5</ele>
        <time>2013-02-03T11:26:36Z</time>
      </trkpt>
      <trkpt lat="43.12691" lon="-0.2491">
        <ele>311.3</ele>
        <time>2013-02-03T11:26:41Z</time>
      </trkpt>
      <trkpt lat="43.12707" lon="-0.24911">
        <ele>311.8</ele>
        <time>2013-02-03T11:26:46Z</time>
      </trkpt>
      <trkpt lat="43.12719" lon="-0.24912">
        <ele>312.2</ele>
        <time>2013-02-03T11:26:51Z</time>
      </trkpt>
      <trkpt lat="43.1273" lon="-0.24913">
        <ele>312.6</ele>
        <time>2013-02-03T11:26:56Z</time>
      </trkpt>
      <trkpt lat="43.12752" lon="-0.24919">
        <ele>312.9</ele>
        <time>2013-02-03T11:27:01Z</time>
      </trkpt>
      <trkpt lat="43.12764" lon="-0.24921">
        <ele>312.6</ele>
        <time>2013-02-03T11:27:06Z</time>
      </trkpt>
      <trkpt lat="43.1278" lon="-0.24922">
        <ele>312.4</ele>
        <time>2013-02-03T11:27:11Z</time>
      </trkpt>
      <trkpt lat="43.12795" lon="-0.24922">
        <ele>312.2</ele>
        <time>2013-02-03T11:27:16Z</time>
      </trkpt>
      <trkpt lat="43.12807" lon="-0.24923">
        <ele>311.8</ele>
        <time>2013-02-03T11:27:21Z</time>
      </trkpt>
      <trkpt lat="43.12823" lon="-0.24923">
        <ele>311.7</ele>
        <time>2013-02-03T11:27:26Z</time>
      </trkpt>
      <trkpt lat="43.12834" lon="-0.24921">
        <ele>311.9</ele>
        <time>2013-02-03T11:27:31Z</time>
      </trkpt>
      <trkpt lat="43.1285" lon="-0.24917">
        <ele>312.3</ele>
        <time>2013-02-03T11:27:36Z</time>
      </trkpt>
      <trkpt lat="43.12863" lon="-0.24917">
        <ele>311.8</ele>
        <time>2013-02-03T11:27:41Z</time>
      </trkpt>
      <trkpt lat="43.12874" lon="-0.24919">
        <ele>310.9</ele>
        <time>2013-02-03T11:27:46Z</time>
      </trkpt>
      <trkpt lat="43.12891" lon="-0.24919">
        <ele>310.5</ele>
        <time>2013-02-03T11:27:51Z</time>
      </trkpt>
      <trkpt lat="43.129" lon="-0.24918">
        <ele>311.9</ele>
        <time>2013-02-03T11:27:56Z</time>
      </trkpt>
      <trkpt lat="43.12915" lon="-0.24921">
        <ele>312.8</ele>
        <time>2013-02-03T11:28:01Z</time>
      </trkpt>
      <trkpt lat="43.12927" lon="-0.2492">
        <ele>315.9</ele>
        <time>2013-02-03T11:28:06Z</time>
      </trkpt>
      <trkpt lat="43.12941" lon="-0.24916">
        <ele>320.7</ele>
        <time>2013-02-03T11:28:11Z</time>
      </trkpt>
      <trkpt lat="43.12959" lon="-0.24915">
        <ele>324.8</ele>
        <time>2013-02-03T11:28:16Z</time>
      </trkpt>
      <trkpt lat="43.1297" lon="-0.24916">
        <ele>326.8</ele>
        <time>2013-02-03T11:28:21Z</time>
      </trkpt>
      <trkpt lat="43.12988" lon="-0.24918">
        <ele>327.2</ele>
        <time>2013-02-03T11:28:26Z</time>
      </trkpt>
      <trkpt lat="43.12999" lon="-0.24915">
        <ele>328.4</ele>
        <time>2013-02-03T11:28:31Z</time>
      </trkpt>
      <trkpt lat="43.13013" lon="-0.24914">
        <ele>327.8</ele>
        <time>2013-02-03T11:28:36Z</time>
      </trkpt>
      <trkpt lat="43.1303" lon="-0.24912">
        <ele>326.8</ele>
        <time>2013-02-03T11:28:41Z</time>
      </trkpt>
      <trkpt lat="43.13041" lon="-0.2491">
        <ele>324.6</ele>
        <time>2013-02-03T11:28:46Z</time>
      </trkpt>
      <trkpt lat="43.13052" lon="-0.2491">
        <ele>322.1</ele>
        <time>2013-02-03T11:28:51Z</time>
      </trkpt>
      <trkpt lat="43.13062" lon="-0.24911">
        <ele>318.8</ele>
        <time>2013-02-03T11:28:56Z</time>
      </trkpt>
      <trkpt lat="43.13079" lon="-0.24908">
        <ele>314.9</ele>
        <time>2013-02-03T11:29:01Z</time>
      </trkpt>
      <trkpt lat="43.13094" lon="-0.24905">
        <ele>312.9</ele>
        <time>2013-02-03T11:29:06Z</time>
      </trkpt>
      <trkpt lat="43.1311" lon="-0.24905">
        <ele>310.3</ele>
        <time>2013-02-03T11:29:11Z</time>
      </trkpt>
      <trkpt lat="43.13126" lon="-0.24902">
        <ele>310.9</ele>
        <time>2013-02-03T11:29:16Z</time>
      </trkpt>
      <trkpt lat="43.13135" lon="-0.249">
        <ele>311.7</ele>
        <time>2013-02-03T11:29:21Z</time>
      </trkpt>
      <trkpt lat="43.13147" lon="-0.24898">
        <ele>312.7</ele>
        <time>2013-02-03T11:29:26Z</time>
      </trkpt>
      <trkpt lat="43.13164" lon="-0.24894">
        <ele>313.8</ele>
        <time>2013-02-03T11:29:31Z</time>
      </trkpt>
      <trkpt lat="43.13175" lon="-0.24892">
        <ele>314</ele>
        <time>2013-02-03T11:29:36Z</time>
      </trkpt>
      <trkpt lat="43.13191" lon="-0.24894">
        <ele>313.2</ele>
        <time>2013-02-03T11:29:41Z</time>
      </trkpt>
      <trkpt lat="43.13206" lon="-0.24894">
        <ele>312</ele>
        <time>2013-02-03T11:29:46Z</time>
      </trkpt>
      <trkpt lat="43.13218" lon="-0.24894">
        <ele>310.9</ele>
        <time>2013-02-03T11:29:51Z</time>
      </trkpt>
      <trkpt lat="43.13239" lon="-0.24893">
        <ele>309.2</ele>
        <time>2013-02-03T11:29:56Z</time>
      </trkpt>
      <trkpt lat="43.13251" lon="-0.24892">
        <ele>308.5</ele>
        <time>2013-02-03T11:30:01Z</time>
      </trkpt>
      <trkpt lat="43.13269" lon="-0.2489">
        <ele>308.1</ele>
        <time>2013-02-03T11:30:06Z</time>
      </trkpt>
      <trkpt lat="43.13281" lon="-0.24889">
        <ele>308</ele>
        <time>2013-02-03T11:30:11Z</time>
      </trkpt>
      <trkpt lat="43.13295" lon="-0.24885">
        <ele>308.5</ele>
        <time>2013-02-03T11:30:16Z</time>
      </trkpt>
      <trkpt lat="43.13312" lon="-0.24884">
        <ele>308.7</ele>
        <time>2013-02-03T11:30:21Z</time>
      </trkpt>
      <trkpt lat="43.13322" lon="-0.24881">
        <ele>309.9</ele>
        <time>2013-02-03T11:30:26Z</time>
      </trkpt>
      <trkpt lat="43.13338" lon="-0.24882">
        <ele>310.1</ele>
        <time>2013-02-03T11:30:31Z</time>
      </trkpt>
      <trkpt lat="43.1335" lon="-0.24882">
        <ele>310.5</ele>
        <time>2013-02-03T11:30:36Z</time>
      </trkpt>
      <trkpt lat="43.13366" lon="-0.24884">
        <ele>310.3</ele>
        <time>2013-02-03T11:30:41Z</time>
      </trkpt>
      <trkpt lat="43.1338" lon="-0.24885">
        <ele>309.5</ele>
        <time>2013-02-03T11:30:46Z</time>
      </trkpt>
      <trkpt lat="43.1339" lon="-0.24887">
        <ele>308.8</ele>
        <time>2013-02-03T11:30:51Z</time>
      </trkpt>
      <trkpt lat="43.13404" lon="-0.24889">
        <ele>308.1</ele>
        <time>2013-02-03T11:30:56Z</time>
      </trkpt>
      <trkpt lat="43.13418" lon="-0.24891">
        <ele>307.7</ele>
        <time>2013-02-03T11:31:01Z</time>
      </trkpt>
      <trkpt lat="43.13435" lon="-0.24891">
        <ele>307.7</ele>
        <time>2013-02-03T11:31:06Z</time>
      </trkpt>
      <trkpt lat="43.13447" lon="-0.2489">
        <ele>307.8</ele>
        <time>2013-02-03T11:31:11Z</time>
      </trkpt>
      <trkpt lat="43.13459" lon="-0.24891">
        <ele>307.5</ele>
        <time>2013-02-03T11:31:16Z</time>
      </trkpt>
      <trkpt lat="43.13475" lon="-0.24892">
        <ele>307.4</ele>
        <time>2013-02-03T11:31:21Z</time>
      </trkpt>
      <trkpt lat="43.13487" lon="-0.24895">
        <ele>306.7</ele>
        <time>2013-02-03T11:31:26Z</time>
      </trkpt>
      <trkpt lat="43.13504" lon="-0.24892">
        <ele>307.5</ele>
        <time>2013-02-03T11:31:31Z</time>
      </trkpt>
      <trkpt lat="43.13518" lon="-0.24895">
        <ele>307.7</ele>
        <time>2013-02-03T11:31:36Z</time>
      </trkpt>
      <trkpt lat="43.13529" lon="-0.24898">
        <ele>307.4</ele>
        <time>2013-02-03T11:31:41Z</time>
      </trkpt>
      <trkpt lat="43.13545" lon="-0.24905">
        <ele>307.1</ele>
        <time>2013-02-03T11:31:46Z</time>
      </trkpt>
      <trkpt lat="43.13556" lon="-0.24907">
        <ele>307.6</ele>
        <time>2013-02-03T11:31:51Z</time>
      </trkpt>
      <trkpt lat="43.13569" lon="-0.24914">
        <ele>307.1</ele>
        <time>2013-02-03T11:31:56Z</time>
      </trkpt>
      <trkpt lat="43.13581" lon="-0.24916">
        <ele>307.8</ele>
        <time>2013-02-03T11:32:01Z</time>
      </trkpt>
      <trkpt lat="43.13594" lon="-0.24922">
        <ele>308.3</ele>
        <time>2013-02-03T11:32:06Z</time>
      </trkpt>
      <trkpt lat="43.13609" lon="-0.24928">
        <ele>308.3</ele>
        <time>2013-02-03T11:32:11Z</time>
      </trkpt>
      <trkpt lat="43.1362" lon="-0.24935">
        <ele>306.6</ele>
        <time>2013-02-03T11:32:16Z</time>
      </trkpt>
      <trkpt lat="43.13638" lon="-0.2494">
        <ele>306.6</ele>
        <time>2013-02-03T11:32:21Z</time>
      </trkpt>
      <trkpt lat="43.13651" lon="-0.24944">
        <ele>304.9</ele>
        <time>2013-02-03T11:32:26Z</time>
      </trkpt>
      <trkpt lat="43.13666" lon="-0.24946">
        <ele>303.7</ele>
        <time>2013-02-03T11:32:31Z</time>
      </trkpt>
      <trkpt lat="43.13686" lon="-0.24944">
        <ele>302.7</ele>
        <time>2013-02-03T11:32:36Z</time>
      </trkpt>
      <trkpt lat="43.13698" lon="-0.2494">
        <ele>302.8</ele>
        <time>2013-02-03T11:32:41Z</time>
      </trkpt>
      <trkpt lat="43.13716" lon="-0.24937">
        <ele>301.7</ele>
        <time>2013-02-03T11:32:46Z</time>
      </trkpt>
      <trkpt lat="43.13728" lon="-0.24933">
        <ele>301</ele>
        <time>2013-02-03T11:32:51Z</time>
      </trkpt>
      <trkpt lat="43.13744" lon="-0.24929">
        <ele>299.9</ele>
        <time>2013-02-03T11:32:56Z</time>
      </trkpt>
      <trkpt lat="43.13758" lon="-0.24923">
        <ele>299.6</ele>
        <time>2013-02-03T11:33:01Z</time>
      </trkpt>
      <trkpt lat="43.13772" lon="-0.24919">
        <ele>299.1</ele>
        <time>2013-02-03T11:33:06Z</time>
      </trkpt>
      <trkpt lat="43.1379" lon="-0.24913">
        <ele>299.5</ele>
        <time>2013-02-03T11:33:11Z</time>
      </trkpt>
      <trkpt lat="43.13803" lon="-0.2491">
        <ele>299.6</ele>
        <time>2013-02-03T11:33:16Z</time>
      </trkpt>
      <trkpt lat="43.13813" lon="-0.24907">
        <ele>300.2</ele>
        <time>2013-02-03T11:33:21Z</time>
      </trkpt>
      <trkpt lat="43.1383" lon="-0.24907">
        <ele>300.7</ele>
        <time>2013-02-03T11:33:26Z</time>
      </trkpt>
      <trkpt lat="43.13841" lon="-0.24907">
        <ele>300.5</ele>
        <time>2013-02-03T11:33:31Z</time>
      </trkpt>
      <trkpt lat="43.13857" lon="-0.24909">
        <ele>299.7</ele>
        <time>2013-02-03T11:33:36Z</time>
      </trkpt>
      <trkpt lat="43.13869" lon="-0.24913">
        <ele>299.3</ele>
        <time>2013-02-03T11:33:41Z</time>
      </trkpt>
      <trkpt lat="43.13884" lon="-0.24922">
        <ele>298.8</ele>
        <time>2013-02-03T11:33:46Z</time>
      </trkpt>
      <trkpt lat="43.13901" lon="-0.24932">
        <ele>298.7</ele>
        <time>2013-02-03T11:33:51Z</time>
      </trkpt>
      <trkpt lat="43.13911" lon="-0.24939">
        <ele>298.2</ele>
        <time>2013-02-03T11:33:56Z</time>
      </trkpt>
      <trkpt lat="43.13927" lon="-0.24952">
        <ele>297.8</ele>
        <time>2013-02-03T11:34:01Z</time>
      </trkpt>
      <trkpt lat="43.13937" lon="-0.24961">
        <ele>298</ele>
        <time>2013-02-03T11:34:06Z</time>
      </trkpt>
      <trkpt lat="43.13948" lon="-0.24975">
        <ele>296.4</ele>
        <time>2013-02-03T11:34:11Z</time>
      </trkpt>
      <trkpt lat="43.13962" lon="-0.2499">
        <ele>296.7</ele>
        <time>2013-02-03T11:34:16Z</time>
      </trkpt>
      <trkpt lat="43.13969" lon="-0.24995">
        <ele>297.2</ele>
        <time>2013-02-03T11:34:21Z</time>
      </trkpt>
      <trkpt lat="43.13975" lon="-0.25003">
        <ele>297</ele>
        <time>2013-02-03T11:34:26Z</time>
      </trkpt>
      <trkpt lat="43.13978" lon="-0.25007">
        <ele>296.9</ele>
        <time>2013-02-03T11:34:31Z</time>
      </trkpt>
      <trkpt lat="43.1398" lon="-0.25014">
        <ele>296.5</ele>
        <time>2013-02-03T11:34:36Z</time>
      </trkpt>
      <trkpt lat="43.13985" lon="-0.25019">
        <ele>296.5</ele>
        <time>2013-02-03T11:34:41Z</time>
      </trkpt>
      <trkpt lat="43.13988" lon="-0.25021">
        <ele>296.6</ele>
        <time>2013-02-03T11:34:46Z</time>
      </trkpt>
      <trkpt lat="43.13991" lon="-0.25026">
        <ele>296.3</ele>
        <time>2013-02-03T11:34:51Z</time>
      </trkpt>
      <trkpt lat="43.13991" lon="-0.25026">
        <ele>296.3</ele>
        <time>2013-02-03T11:34:56Z</time>
      </trkpt>
      <trkpt lat="43.13992" lon="-0.25027">
        <ele>296.3</ele>
        <time>2013-02-03T11:35:01Z</time>
      </trkpt>
      <trkpt lat="43.13992" lon="-0.25027">
        <ele>296.2</ele>
        <time>2013-02-03T11:35:06Z</time>
      </trkpt>
      <trkpt lat="43.13992" lon="-0.25028">
        <ele>296.1</ele>
        <time>2013-02-03T11:35:11Z</time>
      </trkpt>
      <trkpt lat="43.13992" lon="-0.25028">
        <ele>296.1</ele>
        <time>2013-02-03T11:35:16Z</time>
      </trkpt>
      <trkpt lat="43.13995" lon="-0.25035">
        <ele>296.1</ele>
        <time>2013-02-03T11:35:21Z</time>
      </trkpt>
      <trkpt lat="43.14002" lon="-0.25039">
        <ele>296.3</ele>
        <time>2013-02-03T11:35:26Z</time>
      </trkpt>
      <trkpt lat="43.14007" lon="-0.25041">
        <ele>296.3</ele>
        <time>2013-02-03T11:35:31Z</time>
      </trkpt>
      <trkpt lat="43.14012" lon="-0.25043">
        <ele>296.4</ele>
        <time>2013-02-03T11:35:36Z</time>
      </trkpt>
      <trkpt lat="43.1402" lon="-0.25046">
        <ele>296.4</ele>
        <time>2013-02-03T11:35:41Z</time>
      </trkpt>
      <trkpt lat="43.14025" lon="-0.25045">
        <ele>296.6</ele>
        <time>2013-02-03T11:35:46Z</time>
      </trkpt>
      <trkpt lat="43.14032" lon="-0.25044">
        <ele>296.8</ele>
        <time>2013-02-03T11:35:51Z</time>
      </trkpt>
      <trkpt lat="43.14041" lon="-0.25044">
        <ele>296.9</ele>
        <time>2013-02-03T11:35:56Z</time>
      </trkpt>
      <trkpt lat="43.14055" lon="-0.25043">
        <ele>296.9</ele>
        <time>2013-02-03T11:36:01Z</time>
      </trkpt>
      <trkpt lat="43.1406" lon="-0.25042">
        <ele>296.7</ele>
        <time>2013-02-03T11:36:06Z</time>
      </trkpt>
      <trkpt lat="43.14065" lon="-0.2507">
        <ele>295.7</ele>
        <time>2013-02-03T11:36:11Z</time>
      </trkpt>
      <trkpt lat="43.14065" lon="-0.2509">
        <ele>295.7</ele>
        <time>2013-02-03T11:36:16Z</time>
      </trkpt>
      <trkpt lat="43.14065" lon="-0.25104">
        <ele>295.9</ele>
        <time>2013-02-03T11:36:21Z</time>
      </trkpt>
      <trkpt lat="43.14065" lon="-0.25123">
        <ele>296</ele>
        <time>2013-02-03T11:36:26Z</time>
      </trkpt>
      <trkpt lat="43.14069" lon="-0.25134">
        <ele>295.5</ele>
        <time>2013-02-03T11:36:31Z</time>
      </trkpt>
      <trkpt lat="43.1408" lon="-0.25133">
        <ele>294.4</ele>
        <time>2013-02-03T11:36:36Z</time>
      </trkpt>
      <trkpt lat="43.14092" lon="-0.25131">
        <ele>293.7</ele>
        <time>2013-02-03T11:36:41Z</time>
      </trkpt>
      <trkpt lat="43.14106" lon="-0.25134">
        <ele>293.2</ele>
        <time>2013-02-03T11:36:46Z</time>
      </trkpt>
      <trkpt lat="43.14117" lon="-0.25136">
        <ele>293</ele>
        <time>2013-02-03T11:36:51Z</time>
      </trkpt>
      <trkpt lat="43.14133" lon="-0.25136">
        <ele>292.9</ele>
        <time>2013-02-03T11:36:56Z</time>
      </trkpt>
      <trkpt lat="43.14143" lon="-0.25135">
        <ele>292.9</ele>
        <time>2013-02-03T11:37:01Z</time>
      </trkpt>
      <trkpt lat="43.14159" lon="-0.25132">
        <ele>292.9</ele>
        <time>2013-02-03T11:37:06Z</time>
      </trkpt>
      <trkpt lat="43.14168" lon="-0.25125">
        <ele>293</ele>
        <time>2013-02-03T11:37:11Z</time>
      </trkpt>
      <trkpt lat="43.14179" lon="-0.25119">
        <ele>293</ele>
        <time>2013-02-03T11:37:16Z</time>
      </trkpt>
      <trkpt lat="43.14194" lon="-0.25113">
        <ele>293</ele>
        <time>2013-02-03T11:37:21Z</time>
      </trkpt>
      <trkpt lat="43.14204" lon="-0.25111">
        <ele>292.6</ele>
        <time>2013-02-03T11:37:26Z</time>
      </trkpt>
      <trkpt lat="43.1422" lon="-0.25111">
        <ele>292.1</ele>
        <time>2013-02-03T11:37:31Z</time>
      </trkpt>
      <trkpt lat="43.14229" lon="-0.25115">
        <ele>291.6</ele>
        <time>2013-02-03T11:37:36Z</time>
      </trkpt>
      <trkpt lat="43.14243" lon="-0.25111">
        <ele>290.5</ele>
        <time>2013-02-03T11:37:41Z</time>
      </trkpt>
      <trkpt lat="43.14255" lon="-0.25104">
        <ele>290.1</ele>
        <time>2013-02-03T11:37:46Z</time>
      </trkpt>
      <trkpt lat="43.14266" lon="-0.25098">
        <ele>290</ele>
        <time>2013-02-03T11:37:51Z</time>
      </trkpt>
      <trkpt lat="43.14281" lon="-0.25089">
        <ele>289.5</ele>
        <time>2013-02-03T11:37:56Z</time>
      </trkpt>
      <trkpt lat="43.14292" lon="-0.25083">
        <ele>289.5</ele>
        <time>2013-02-03T11:38:01Z</time>
      </trkpt>
      <trkpt lat="43.14301" lon="-0.25075">
        <ele>289.6</ele>
        <time>2013-02-03T11:38:06Z</time>
      </trkpt>
      <trkpt lat="43.14315" lon="-0.25064">
        <ele>289.6</ele>
        <time>2013-02-03T11:38:11Z</time>
      </trkpt>
      <trkpt lat="43.14324" lon="-0.25057">
        <ele>289.7</ele>
        <time>2013-02-03T11:38:16Z</time>
      </trkpt>
      <trkpt lat="43.14337" lon="-0.25048">
        <ele>289.7</ele>
        <time>2013-02-03T11:38:21Z</time>
      </trkpt>
      <trkpt lat="43.14345" lon="-0.2504">
        <ele>289.4</ele>
        <time>2013-02-03T11:38:26Z</time>
      </trkpt>
      <trkpt lat="43.14359" lon="-0.25033">
        <ele>289.2</ele>
        <time>2013-02-03T11:38:31Z</time>
      </trkpt>
      <trkpt lat="43.14372" lon="-0.25031">
        <ele>289.1</ele>
        <time>2013-02-03T11:38:36Z</time>
      </trkpt>
      <trkpt lat="43.1438" lon="-0.2503">
        <ele>289.1</ele>
        <time>2013-02-03T11:38:41Z</time>
      </trkpt>
      <trkpt lat="43.14392" lon="-0.25031">
        <ele>289.1</ele>
        <time>2013-02-03T11:38:46Z</time>
      </trkpt>
      <trkpt lat="43.14398" lon="-0.25037">
        <ele>289.3</ele>
        <time>2013-02-03T11:38:51Z</time>
      </trkpt>
      <trkpt lat="43.14402" lon="-0.25043">
        <ele>289.5</ele>
        <time>2013-02-03T11:38:56Z</time>
      </trkpt>
      <trkpt lat="43.14402" lon="-0.25044">
        <ele>289.6</ele>
        <time>2013-02-03T11:39:01Z</time>
      </trkpt>
      <trkpt lat="43.14403" lon="-0.25045">
        <ele>289.6</ele>
        <time>2013-02-03T11:39:06Z</time>
      </trkpt>
      <trkpt lat="43.144" lon="-0.25047">
        <ele>289.7</ele>
        <time>2013-02-03T11:39:11Z</time>
      </trkpt>
      <trkpt lat="43.14397" lon="-0.2506">
        <ele>290</ele>
        <time>2013-02-03T11:39:16Z</time>
      </trkpt>
      <trkpt lat="43.14393" lon="-0.25078">
        <ele>290</ele>
        <time>2013-02-03T11:39:21Z</time>
      </trkpt>
      <trkpt lat="43.14391" lon="-0.25093">
        <ele>290</ele>
        <time>2013-02-03T11:39:26Z</time>
      </trkpt>
      <trkpt lat="43.1439" lon="-0.25105">
        <ele>290</ele>
        <time>2013-02-03T11:39:31Z</time>
      </trkpt>
      <trkpt lat="43.14386" lon="-0.25125">
        <ele>290.6</ele>
        <time>2013-02-03T11:39:36Z</time>
      </trkpt>
      <trkpt lat="43.14382" lon="-0.25138">
        <ele>291</ele>
        <time>2013-02-03T11:39:41Z</time>
      </trkpt>
      <trkpt lat="43.14379" lon="-0.25157">
        <ele>291</ele>
        <time>2013-02-03T11:39:46Z</time>
      </trkpt>
      <trkpt lat="43.14377" lon="-0.25166">
        <ele>291</ele>
        <time>2013-02-03T11:39:51Z</time>
      </trkpt>
      <trkpt lat="43.14374" lon="-0.2518">
        <ele>291.3</ele>
        <time>2013-02-03T11:39:56Z</time>
      </trkpt>
      <trkpt lat="43.14372" lon="-0.25204">
        <ele>291.6</ele>
        <time>2013-02-03T11:40:01Z</time>
      </trkpt>
      <trkpt lat="43.14376" lon="-0.25215">
        <ele>291.5</ele>
        <time>2013-02-03T11:40:06Z</time>
      </trkpt>
      <trkpt lat="43.14374" lon="-0.25229">
        <ele>291.6</ele>
        <time>2013-02-03T11:40:11Z</time>
      </trkpt>
      <trkpt lat="43.14367" lon="-0.25238">
        <ele>291.9</ele>
        <time>2013-02-03T11:40:16Z</time>
      </trkpt>
      <trkpt lat="43.14362" lon="-0.25251">
        <ele>292</ele>
        <time>2013-02-03T11:40:21Z</time>
      </trkpt>
      <trkpt lat="43.1436" lon="-0.25265">
        <ele>292.5</ele>
        <time>2013-02-03T11:40:26Z</time>
      </trkpt>
      <trkpt lat="43.14369" lon="-0.25274">
        <ele>292.9</ele>
        <time>2013-02-03T11:40:31Z</time>
      </trkpt>
      <trkpt lat="43.14378" lon="-0.2528">
        <ele>293</ele>
        <time>2013-02-03T11:40:36Z</time>
      </trkpt>
      <trkpt lat="43.14388" lon="-0.25288">
        <ele>293.3</ele>
        <time>2013-02-03T11:40:41Z</time>
      </trkpt>
      <trkpt lat="43.144" lon="-0.25298">
        <ele>293.3</ele>
        <time>2013-02-03T11:40:46Z</time>
      </trkpt>
      <trkpt lat="43.14407" lon="-0.25308">
        <ele>293.4</ele>
        <time>2013-02-03T11:40:51Z</time>
      </trkpt>
      <trkpt lat="43.1442" lon="-0.25325">
        <ele>293.5</ele>
        <time>2013-02-03T11:40:56Z</time>
      </trkpt>
      <trkpt lat="43.14433" lon="-0.25337">
        <ele>293.5</ele>
        <time>2013-02-03T11:41:01Z</time>
      </trkpt>
      <trkpt lat="43.14445" lon="-0.25344">
        <ele>293.4</ele>
        <time>2013-02-03T11:41:06Z</time>
      </trkpt>
      <trkpt lat="43.14455" lon="-0.25348">
        <ele>293.3</ele>
        <time>2013-02-03T11:41:11Z</time>
      </trkpt>
      <trkpt lat="43.14473" lon="-0.2535">
        <ele>293</ele>
        <time>2013-02-03T11:41:16Z</time>
      </trkpt>
      <trkpt lat="43.14483" lon="-0.25348">
        <ele>292.8</ele>
        <time>2013-02-03T11:41:21Z</time>
      </trkpt>
      <trkpt lat="43.14496" lon="-0.25346">
        <ele>292.5</ele>
        <time>2013-02-03T11:41:26Z</time>
      </trkpt>
      <trkpt lat="43.14512" lon="-0.25345">
        <ele>292.2</ele>
        <time>2013-02-03T11:41:31Z</time>
      </trkpt>
      <trkpt lat="43.14523" lon="-0.25344">
        <ele>292.1</ele>
        <time>2013-02-03T11:41:36Z</time>
      </trkpt>
      <trkpt lat="43.14537" lon="-0.25341">
        <ele>292.1</ele>
        <time>2013-02-03T11:41:41Z</time>
      </trkpt>
      <trkpt lat="43.14547" lon="-0.2534">
        <ele>292.2</ele>
        <time>2013-02-03T11:41:46Z</time>
      </trkpt>
      <trkpt lat="43.14563" lon="-0.25341">
        <ele>292.6</ele>
        <time>2013-02-03T11:41:51Z</time>
      </trkpt>
      <trkpt lat="43.14576" lon="-0.25342">
        <ele>293.3</ele>
        <time>2013-02-03T11:41:56Z</time>
      </trkpt>
      <trkpt lat="43.14587" lon="-0.25341">
        <ele>293.8</ele>
        <time>2013-02-03T11:42:01Z</time>
      </trkpt>
      <trkpt lat="43.14602" lon="-0.25338">
        <ele>294.8</ele>
        <time>2013-02-03T11:42:06Z</time>
      </trkpt>
      <trkpt lat="43.14613" lon="-0.25336">
        <ele>295.4</ele>
        <time>2013-02-03T11:42:11Z</time>
      </trkpt>
      <trkpt lat="43.14628" lon="-0.25334">
        <ele>296.8</ele>
        <time>2013-02-03T11:42:16Z</time>
      </trkpt>
      <trkpt lat="43.14637" lon="-0.25331">
        <ele>297.6</ele>
        <time>2013-02-03T11:42:21Z</time>
      </trkpt>
      <trkpt lat="43.14651" lon="-0.25328">
        <ele>299.7</ele>
        <time>2013-02-03T11:42:26Z</time>
      </trkpt>
      <trkpt lat="43.14661" lon="-0.25323">
        <ele>300.6</ele>
        <time>2013-02-03T11:42:31Z</time>
      </trkpt>
      <trkpt lat="43.14667" lon="-0.25319">
        <ele>300.9</ele>
        <time>2013-02-03T11:42:36Z</time>
      </trkpt>
      <trkpt lat="43.14682" lon="-0.25312">
        <ele>302.6</ele>
        <time>2013-02-03T11:42:41Z</time>
      </trkpt>
      <trkpt lat="43.1469" lon="-0.25307">
        <ele>303.3</ele>
        <time>2013-02-03T11:42:46Z</time>
      </trkpt>
      <trkpt lat="43.14696" lon="-0.25294">
        <ele>304.2</ele>
        <time>2013-02-03T11:42:51Z</time>
      </trkpt>
      <trkpt lat="43.14698" lon="-0.2528">
        <ele>304.6</ele>
        <time>2013-02-03T11:42:56Z</time>
      </trkpt>
      <trkpt lat="43.147" lon="-0.25268">
        <ele>304.7</ele>
        <time>2013-02-03T11:43:01Z</time>
      </trkpt>
      <trkpt lat="43.14704" lon="-0.25245">
        <ele>305.3</ele>
        <time>2013-02-03T11:43:06Z</time>
      </trkpt>
      <trkpt lat="43.14708" lon="-0.25231">
        <ele>305.6</ele>
        <time>2013-02-03T11:43:11Z</time>
      </trkpt>
      <trkpt lat="43.14713" lon="-0.2521">
        <ele>305.4</ele>
        <time>2013-02-03T11:43:16Z</time>
      </trkpt>
      <trkpt lat="43.14718" lon="-0.25192">
        <ele>305.3</ele>
        <time>2013-02-03T11:43:21Z</time>
      </trkpt>
      <trkpt lat="43.14722" lon="-0.25178">
        <ele>305.3</ele>
        <time>2013-02-03T11:43:26Z</time>
      </trkpt>
      <trkpt lat="43.14727" lon="-0.2516">
        <ele>305.7</ele>
        <time>2013-02-03T11:43:31Z</time>
      </trkpt>
      <trkpt lat="43.14732" lon="-0.2515">
        <ele>306.7</ele>
        <time>2013-02-03T11:43:36Z</time>
      </trkpt>
      <trkpt lat="43.14743" lon="-0.2514">
        <ele>308.6</ele>
        <time>2013-02-03T11:43:41Z</time>
      </trkpt>
      <trkpt lat="43.1475" lon="-0.25136">
        <ele>310.2</ele>
        <time>2013-02-03T11:43:46Z</time>
      </trkpt>
      <trkpt lat="43.14759" lon="-0.2513">
        <ele>311.7</ele>
        <time>2013-02-03T11:43:51Z</time>
      </trkpt>
      <trkpt lat="43.1477" lon="-0.25123">
        <ele>313.8</ele>
        <time>2013-02-03T11:43:56Z</time>
      </trkpt>
      <trkpt lat="43.14777" lon="-0.25119">
        <ele>315.3</ele>
        <time>2013-02-03T11:44:01Z</time>
      </trkpt>
      <trkpt lat="43.14786" lon="-0.25114">
        <ele>317.3</ele>
        <time>2013-02-03T11:44:06Z</time>
      </trkpt>
      <trkpt lat="43.14794" lon="-0.2511">
        <ele>318.9</ele>
        <time>2013-02-03T11:44:11Z</time>
      </trkpt>
      <trkpt lat="43.14804" lon="-0.25102">
        <ele>321</ele>
        <time>2013-02-03T11:44:16Z</time>
      </trkpt>
      <trkpt lat="43.14812" lon="-0.25098">
        <ele>322.2</ele>
        <time>2013-02-03T11:44:21Z</time>
      </trkpt>
      <trkpt lat="43.14825" lon="-0.25091">
        <ele>323.5</ele>
        <time>2013-02-03T11:44:26Z</time>
      </trkpt>
      <trkpt lat="43.14836" lon="-0.25087">
        <ele>324.1</ele>
        <time>2013-02-03T11:44:31Z</time>
      </trkpt>
      <trkpt lat="43.14847" lon="-0.25092">
        <ele>324.2</ele>
        <time>2013-02-03T11:44:36Z</time>
      </trkpt>
      <trkpt lat="43.14854" lon="-0.25104">
        <ele>324.2</ele>
        <time>2013-02-03T11:44:41Z</time>
      </trkpt>
      <trkpt lat="43.14861" lon="-0.25121">
        <ele>324.4</ele>
        <time>2013-02-03T11:44:46Z</time>
      </trkpt>
      <trkpt lat="43.14866" lon="-0.25134">
        <ele>325.1</ele>
        <time>2013-02-03T11:44:51Z</time>
      </trkpt>
      <trkpt lat="43.14874" lon="-0.25148">
        <ele>325.6</ele>
        <time>2013-02-03T11:44:56Z</time>
      </trkpt>
      <trkpt lat="43.1488" lon="-0.25162">
        <ele>326</ele>
        <time>2013-02-03T11:45:01Z</time>
      </trkpt>
      <trkpt lat="43.14886" lon="-0.25179">
        <ele>326</ele>
        <time>2013-02-03T11:45:06Z</time>
      </trkpt>
      <trkpt lat="43.14893" lon="-0.252">
        <ele>326.1</ele>
        <time>2013-02-03T11:45:11Z</time>
      </trkpt>
      <trkpt lat="43.14898" lon="-0.25213">
        <ele>326.1</ele>
        <time>2013-02-03T11:45:16Z</time>
      </trkpt>
      <trkpt lat="43.14907" lon="-0.25232">
        <ele>325.6</ele>
        <time>2013-02-03T11:45:21Z</time>
      </trkpt>
      <trkpt lat="43.14917" lon="-0.25247">
        <ele>325.1</ele>
        <time>2013-02-03T11:45:26Z</time>
      </trkpt>
      <trkpt lat="43.14926" lon="-0.25255">
        <ele>324.9</ele>
        <time>2013-02-03T11:45:31Z</time>
      </trkpt>
      <trkpt lat="43.1494" lon="-0.25253">
        <ele>324.9</ele>
        <time>2013-02-03T11:45:36Z</time>
      </trkpt>
      <trkpt lat="43.14947" lon="-0.25242">
        <ele>325.4</ele>
        <time>2013-02-03T11:45:41Z</time>
      </trkpt>
      <trkpt lat="43.14957" lon="-0.25228">
        <ele>326.3</ele>
        <time>2013-02-03T11:45:46Z</time>
      </trkpt>
      <trkpt lat="43.14964" lon="-0.25213">
        <ele>326.6</ele>
        <time>2013-02-03T11:45:51Z</time>
      </trkpt>
      <trkpt lat="43.1497" lon="-0.25202">
        <ele>326.3</ele>
        <time>2013-02-03T11:45:56Z</time>
      </trkpt>
      <trkpt lat="43.14979" lon="-0.25186">
        <ele>327.2</ele>
        <time>2013-02-03T11:46:01Z</time>
      </trkpt>
      <trkpt lat="43.14983" lon="-0.25178">
        <ele>327.9</ele>
        <time>2013-02-03T11:46:06Z</time>
      </trkpt>
      <trkpt lat="43.14993" lon="-0.25164">
        <ele>328.9</ele>
        <time>2013-02-03T11:46:11Z</time>
      </trkpt>
      <trkpt lat="43.15002" lon="-0.25152">
        <ele>329.7</ele>
        <time>2013-02-03T11:46:16Z</time>
      </trkpt>
      <trkpt lat="43.15012" lon="-0.25139">
        <ele>330.9</ele>
        <time>2013-02-03T11:46:21Z</time>
      </trkpt>
      <trkpt lat="43.15021" lon="-0.25128">
        <ele>332.2</ele>
        <time>2013-02-03T11:46:26Z</time>
      </trkpt>
      <trkpt lat="43.15028" lon="-0.25121">
        <ele>333.3</ele>
        <time>2013-02-03T11:46:31Z</time>
      </trkpt>
      <trkpt lat="43.15028" lon="-0.2512">
        <ele>333.4</ele>
        <time>2013-02-03T11:46:36Z</time>
      </trkpt>
      <trkpt lat="43.15031" lon="-0.25117">
        <ele>333.8</ele>
        <time>2013-02-03T11:46:41Z</time>
      </trkpt>
      <trkpt lat="43.15038" lon="-0.25109">
        <ele>334.9</ele>
        <time>2013-02-03T11:46:46Z</time>
      </trkpt>
      <trkpt lat="43.15041" lon="-0.25104">
        <ele>335.6</ele>
        <time>2013-02-03T11:46:51Z</time>
      </trkpt>
      <trkpt lat="43.15045" lon="-0.25098">
        <ele>336.5</ele>
        <time>2013-02-03T11:46:56Z</time>
      </trkpt>
      <trkpt lat="43.15048" lon="-0.25092">
        <ele>337.3</ele>
        <time>2013-02-03T11:47:01Z</time>
      </trkpt>
      <trkpt lat="43.15051" lon="-0.25086">
        <ele>338.2</ele>
        <time>2013-02-03T11:47:06Z</time>
      </trkpt>
      <trkpt lat="43.15057" lon="-0.25082">
        <ele>339.4</ele>
        <time>2013-02-03T11:47:11Z</time>
      </trkpt>
      <trkpt lat="43.15062" lon="-0.25081">
        <ele>340.4</ele>
        <time>2013-02-03T11:47:16Z</time>
      </trkpt>
      <trkpt lat="43.15067" lon="-0.25079">
        <ele>341.3</ele>
        <time>2013-02-03T11:47:21Z</time>
      </trkpt>
      <trkpt lat="43.15075" lon="-0.25076">
        <ele>342.8</ele>
        <time>2013-02-03T11:47:26Z</time>
      </trkpt>
      <trkpt lat="43.1508" lon="-0.25075">
        <ele>343.7</ele>
        <time>2013-02-03T11:47:31Z</time>
      </trkpt>
      <trkpt lat="43.15087" lon="-0.2507">
        <ele>345.8</ele>
        <time>2013-02-03T11:47:36Z</time>
      </trkpt>
      <trkpt lat="43.15092" lon="-0.25067">
        <ele>347.2</ele>
        <time>2013-02-03T11:47:41Z</time>
      </trkpt>
      <trkpt lat="43.15098" lon="-0.25063">
        <ele>349.1</ele>
        <time>2013-02-03T11:47:46Z</time>
      </trkpt>
      <trkpt lat="43.15104" lon="-0.2506">
        <ele>350.8</ele>
        <time>2013-02-03T11:47:51Z</time>
      </trkpt>
      <trkpt lat="43.1511" lon="-0.25057">
        <ele>352.6</ele>
        <time>2013-02-03T11:47:56Z</time>
      </trkpt>
      <trkpt lat="43.15117" lon="-0.25055">
        <ele>354.7</ele>
        <time>2013-02-03T11:48:01Z</time>
      </trkpt>
      <trkpt lat="43.1512" lon="-0.25055">
        <ele>355.7</ele>
        <time>2013-02-03T11:48:06Z</time>
      </trkpt>
      <trkpt lat="43.15126" lon="-0.25054">
        <ele>357.4</ele>
        <time>2013-02-03T11:48:11Z</time>
      </trkpt>
      <trkpt lat="43.15132" lon="-0.25054">
        <ele>359.1</ele>
        <time>2013-02-03T11:48:16Z</time>
      </trkpt>
      <trkpt lat="43.15136" lon="-0.25051">
        <ele>360.8</ele>
        <time>2013-02-03T11:48:21Z</time>
      </trkpt>
      <trkpt lat="43.15144" lon="-0.25046">
        <ele>364</ele>
        <time>2013-02-03T11:48:26Z</time>
      </trkpt>
      <trkpt lat="43.15147" lon="-0.25042">
        <ele>365.2</ele>
        <time>2013-02-03T11:48:31Z</time>
      </trkpt>
      <trkpt lat="43.15146" lon="-0.25036">
        <ele>366</ele>
        <time>2013-02-03T11:48:36Z</time>
      </trkpt>
      <trkpt lat="43.15148" lon="-0.25022">
        <ele>368</ele>
        <time>2013-02-03T11:48:41Z</time>
      </trkpt>
      <trkpt lat="43.15149" lon="-0.25011">
        <ele>368.8</ele>
        <time>2013-02-03T11:48:46Z</time>
      </trkpt>
      <trkpt lat="43.15151" lon="-0.24999">
        <ele>370</ele>
        <time>2013-02-03T11:48:51Z</time>
      </trkpt>
      <trkpt lat="43.15154" lon="-0.24997">
        <ele>370.9</ele>
        <time>2013-02-03T11:48:56Z</time>
      </trkpt>
      <trkpt lat="43.15154" lon="-0.24994">
        <ele>370.9</ele>
        <time>2013-02-03T11:49:01Z</time>
      </trkpt>
      <trkpt lat="43.15156" lon="-0.24996">
        <ele>371.4</ele>
        <time>2013-02-03T11:49:06Z</time>
      </trkpt>
      <trkpt lat="43.15161" lon="-0.25002">
        <ele>372.9</ele>
        <time>2013-02-03T11:49:11Z</time>
      </trkpt>
      <trkpt lat="43.15166" lon="-0.25012">
        <ele>373.9</ele>
        <time>2013-02-03T11:49:16Z</time>
      </trkpt>
      <trkpt lat="43.15172" lon="-0.25019">
        <ele>375</ele>
        <time>2013-02-03T11:49:21Z</time>
      </trkpt>
      <trkpt lat="43.15177" lon="-0.25026">
        <ele>375.9</ele>
        <time>2013-02-03T11:49:26Z</time>
      </trkpt>
      <trkpt lat="43.15184" lon="-0.2503">
        <ele>376.9</ele>
        <time>2013-02-03T11:49:31Z</time>
      </trkpt>
      <trkpt lat="43.15189" lon="-0.25035">
        <ele>377.3</ele>
        <time>2013-02-03T11:49:36Z</time>
      </trkpt>
      <trkpt lat="43.15199" lon="-0.25042">
        <ele>378.2</ele>
        <time>2013-02-03T11:49:41Z</time>
      </trkpt>
      <trkpt lat="43.15203" lon="-0.25045">
        <ele>378.4</ele>
        <time>2013-02-03T11:49:46Z</time>
      </trkpt>
      <trkpt lat="43.15207" lon="-0.25047">
        <ele>378.8</ele>
        <time>2013-02-03T11:49:51Z</time>
      </trkpt>
      <trkpt lat="43.15217" lon="-0.25055">
        <ele>379.2</ele>
        <time>2013-02-03T11:49:56Z</time>
      </trkpt>
      <trkpt lat="43.15224" lon="-0.25058">
        <ele>379.5</ele>
        <time>2013-02-03T11:50:01Z</time>
      </trkpt>
      <trkpt lat="43.15233" lon="-0.25058">
        <ele>379.9</ele>
        <time>2013-02-03T11:50:06Z</time>
      </trkpt>
      <trkpt lat="43.15236" lon="-0.25056">
        <ele>380.5</ele>
        <time>2013-02-03T11:50:11Z</time>
      </trkpt>
      <trkpt lat="43.15235" lon="-0.2505">
        <ele>381.5</ele>
        <time>2013-02-03T11:50:16Z</time>
      </trkpt>
      <trkpt lat="43.15234" lon="-0.25044">
        <ele>382.7</ele>
        <time>2013-02-03T11:50:21Z</time>
      </trkpt>
      <trkpt lat="43.15235" lon="-0.25041">
        <ele>383.4</ele>
        <time>2013-02-03T11:50:26Z</time>
      </trkpt>
      <trkpt lat="43.15235" lon="-0.25036">
        <ele>384.2</ele>
        <time>2013-02-03T11:50:31Z</time>
      </trkpt>
      <trkpt lat="43.15236" lon="-0.25031">
        <ele>385.3</ele>
        <time>2013-02-03T11:50:36Z</time>
      </trkpt>
      <trkpt lat="43.15239" lon="-0.25028">
        <ele>386.1</ele>
        <time>2013-02-03T11:50:41Z</time>
      </trkpt>
      <trkpt lat="43.1524" lon="-0.25026">
        <ele>386.6</ele>
        <time>2013-02-03T11:50:46Z</time>
      </trkpt>
      <trkpt lat="43.15237" lon="-0.25019">
        <ele>387.4</ele>
        <time>2013-02-03T11:50:51Z</time>
      </trkpt>
      <trkpt lat="43.15233" lon="-0.25013">
        <ele>388.1</ele>
        <time>2013-02-03T11:50:56Z</time>
      </trkpt>
      <trkpt lat="43.15233" lon="-0.25007">
        <ele>389.1</ele>
        <time>2013-02-03T11:51:01Z</time>
      </trkpt>
      <trkpt lat="43.15234" lon="-0.25001">
        <ele>390.1</ele>
        <time>2013-02-03T11:51:06Z</time>
      </trkpt>
      <trkpt lat="43.15236" lon="-0.24998">
        <ele>390.7</ele>
        <time>2013-02-03T11:51:11Z</time>
      </trkpt>
      <trkpt lat="43.15236" lon="-0.24997">
        <ele>390.8</ele>
        <time>2013-02-03T11:51:16Z</time>
      </trkpt>
      <trkpt lat="43.15237" lon="-0.24993">
        <ele>391.4</ele>
        <time>2013-02-03T11:51:21Z</time>
      </trkpt>
      <trkpt lat="43.15238" lon="-0.24989">
        <ele>391.9</ele>
        <time>2013-02-03T11:51:26Z</time>
      </trkpt>
      <trkpt lat="43.15235" lon="-0.24985">
        <ele>392.1</ele>
        <time>2013-02-03T11:51:31Z</time>
      </trkpt>
      <trkpt lat="43.15234" lon="-0.24983">
        <ele>392.2</ele>
        <time>2013-02-03T11:51:36Z</time>
      </trkpt>
      <trkpt lat="43.15229" lon="-0.24973">
        <ele>393.2</ele>
        <time>2013-02-03T11:51:41Z</time>
      </trkpt>
      <trkpt lat="43.15235" lon="-0.24957">
        <ele>394.3</ele>
        <time>2013-02-03T11:51:46Z</time>
      </trkpt>
      <trkpt lat="43.1524" lon="-0.24946">
        <ele>395.2</ele>
        <time>2013-02-03T11:51:51Z</time>
      </trkpt>
      <trkpt lat="43.15246" lon="-0.24928">
        <ele>396.8</ele>
        <time>2013-02-03T11:51:56Z</time>
      </trkpt>
      <trkpt lat="43.1525" lon="-0.24917">
        <ele>398</ele>
        <time>2013-02-03T11:52:01Z</time>
      </trkpt>
      <trkpt lat="43.15254" lon="-0.24902">
        <ele>398.1</ele>
        <time>2013-02-03T11:52:06Z</time>
      </trkpt>
      <trkpt lat="43.15256" lon="-0.24882">
        <ele>398.3</ele>
        <time>2013-02-03T11:52:11Z</time>
      </trkpt>
      <trkpt lat="43.15256" lon="-0.24869">
        <ele>398.5</ele>
        <time>2013-02-03T11:52:16Z</time>
      </trkpt>
      <trkpt lat="43.15262" lon="-0.24851">
        <ele>399.5</ele>
        <time>2013-02-03T11:52:21Z</time>
      </trkpt>
      <trkpt lat="43.15268" lon="-0.24842">
        <ele>400.2</ele>
        <time>2013-02-03T11:52:26Z</time>
      </trkpt>
      <trkpt lat="43.15276" lon="-0.24847">
        <ele>400.8</ele>
        <time>2013-02-03T11:52:31Z</time>
      </trkpt>
      <trkpt lat="43.1528" lon="-0.2485">
        <ele>400.9</ele>
        <time>2013-02-03T11:52:36Z</time>
      </trkpt>
      <trkpt lat="43.15281" lon="-0.24851">
        <ele>400.8</ele>
        <time>2013-02-03T11:52:41Z</time>
      </trkpt>
      <trkpt lat="43.15282" lon="-0.24852">
        <ele>400.8</ele>
        <time>2013-02-03T11:52:46Z</time>
      </trkpt>
      <trkpt lat="43.15283" lon="-0.24853">
        <ele>400.7</ele>
        <time>2013-02-03T11:52:51Z</time>
      </trkpt>
      <trkpt lat="43.15282" lon="-0.24853">
        <ele>400.8</ele>
        <time>2013-02-03T11:52:56Z</time>
      </trkpt>
      <trkpt lat="43.15283" lon="-0.24852">
        <ele>400.7</ele>
        <time>2013-02-03T11:53:01Z</time>
      </trkpt>
      <trkpt lat="43.15283" lon="-0.24852">
        <ele>400.7</ele>
        <time>2013-02-03T11:53:06Z</time>
      </trkpt>
      <trkpt lat="43.15283" lon="-0.24852">
        <ele>400.7</ele>
        <time>2013-02-03T11:53:11Z</time>
      </trkpt>
      <trkpt lat="43.15283" lon="-0.24852">
        <ele>400.7</ele>
        <time>2013-02-03T11:53:16Z</time>
      </trkpt>
      <trkpt lat="43.15283" lon="-0.24852">
        <ele>400.7</ele>
        <time>2013-02-03T11:53:21Z</time>
      </trkpt>
      <trkpt lat="43.15283" lon="-0.24851">
        <ele>400.7</ele>
        <time>2013-02-03T11:53:26Z</time>
      </trkpt>
      <trkpt lat="43.15282" lon="-0.24851">
        <ele>400.7</ele>
        <time>2013-02-03T11:53:31Z</time>
      </trkpt>
      <trkpt lat="43.15283" lon="-0.24851">
        <ele>400.7</ele>
        <time>2013-02-03T11:53:36Z</time>
      </trkpt>
      <trkpt lat="43.15283" lon="-0.24852">
        <ele>400.7</ele>
        <time>2013-02-03T11:53:41Z</time>
      </trkpt>
      <trkpt lat="43.15283" lon="-0.24852">
        <ele>400.7</ele>
        <time>2013-02-03T11:53:46Z</time>
      </trkpt>
      <trkpt lat="43.15283" lon="-0.24852">
        <ele>400.7</ele>
        <time>2013-02-03T11:53:51Z</time>
      </trkpt>
      <trkpt lat="43.15283" lon="-0.24852">
        <ele>400.7</ele>
        <time>2013-02-03T11:53:56Z</time>
      </trkpt>
      <trkpt lat="43.15282" lon="-0.24853">
        <ele>400.7</ele>
        <time>2013-02-03T11:54:01Z</time>
      </trkpt>
      <trkpt lat="43.15282" lon="-0.24853">
        <ele>400.7</ele>
        <time>2013-02-03T11:54:06Z</time>
      </trkpt>
      <trkpt lat="43.15282" lon="-0.24853">
        <ele>400.8</ele>
        <time>2013-02-03T11:54:11Z</time>
      </trkpt>
      <trkpt lat="43.15282" lon="-0.24853">
        <ele>400.8</ele>
        <time>2013-02-03T11:54:16Z</time>
      </trkpt>
      <trkpt lat="43.15281" lon="-0.24854">
        <ele>400.8</ele>
        <time>2013-02-03T11:54:21Z</time>
      </trkpt>
      <trkpt lat="43.15281" lon="-0.24854">
        <ele>400.8</ele>
        <time>2013-02-03T11:54:26Z</time>
      </trkpt>
      <trkpt lat="43.15281" lon="-0.24854">
        <ele>400.8</ele>
        <time>2013-02-03T11:54:31Z</time>
      </trkpt>
      <trkpt lat="43.15281" lon="-0.24854">
        <ele>400.8</ele>
        <time>2013-02-03T11:54:36Z</time>
      </trkpt>
      <trkpt lat="43.15282" lon="-0.24854">
        <ele>400.7</ele>
        <time>2013-02-03T11:54:41Z</time>
      </trkpt>
      <trkpt lat="43.15282" lon="-0.24853">
        <ele>400.7</ele>
        <time>2013-02-03T11:54:46Z</time>
      </trkpt>
      <trkpt lat="43.15283" lon="-0.24852">
        <ele>400.7</ele>
        <time>2013-02-03T11:54:51Z</time>
      </trkpt>
      <trkpt lat="43.15283" lon="-0.24852">
        <ele>400.7</ele>
        <time>2013-02-03T11:54:56Z</time>
      </trkpt>
      <trkpt lat="43.15282" lon="-0.24852">
        <ele>400.7</ele>
        <time>2013-02-03T11:55:01Z</time>
      </trkpt>
      <trkpt lat="43.1528" lon="-0.24855">
        <ele>400.8</ele>
        <time>2013-02-03T11:55:06Z</time>
      </trkpt>
      <trkpt lat="43.1528" lon="-0.24855">
        <ele>400.8</ele>
        <time>2013-02-03T11:55:11Z</time>
      </trkpt>
      <trkpt lat="43.15281" lon="-0.24855">
        <ele>400.8</ele>
        <time>2013-02-03T11:55:16Z</time>
      </trkpt>
      <trkpt lat="43.15281" lon="-0.24856">
        <ele>400.8</ele>
        <time>2013-02-03T11:55:21Z</time>
      </trkpt>
      <trkpt lat="43.15281" lon="-0.24857">
        <ele>400.8</ele>
        <time>2013-02-03T11:55:26Z</time>
      </trkpt>
      <trkpt lat="43.1528" lon="-0.24857">
        <ele>400.8</ele>
        <time>2013-02-03T11:55:31Z</time>
      </trkpt>
      <trkpt lat="43.1528" lon="-0.24856">
        <ele>400.8</ele>
        <time>2013-02-03T11:55:36Z</time>
      </trkpt>
      <trkpt lat="43.15282" lon="-0.24855">
        <ele>400.7</ele>
        <time>2013-02-03T11:55:41Z</time>
      </trkpt>
      <trkpt lat="43.15283" lon="-0.24855">
        <ele>400.7</ele>
        <time>2013-02-03T11:55:46Z</time>
      </trkpt>
      <trkpt lat="43.15285" lon="-0.24854">
        <ele>400.6</ele>
        <time>2013-02-03T11:55:51Z</time>
      </trkpt>
      <trkpt lat="43.15284" lon="-0.24853">
        <ele>400.6</ele>
        <time>2013-02-03T11:55:56Z</time>
      </trkpt>
      <trkpt lat="43.15284" lon="-0.24853">
        <ele>400.6</ele>
        <time>2013-02-03T11:56:01Z</time>
      </trkpt>
      <trkpt lat="43.15284" lon="-0.24852">
        <ele>400.6</ele>
        <time>2013-02-03T11:56:06Z</time>
      </trkpt>
      <trkpt lat="43.15284" lon="-0.24852">
        <ele>400.7</ele>
        <time>2013-02-03T11:56:11Z</time>
      </trkpt>
      <trkpt lat="43.15284" lon="-0.24851">
        <ele>400.7</ele>
        <time>2013-02-03T11:56:16Z</time>
      </trkpt>
      <trkpt lat="43.15284" lon="-0.24851">
        <ele>400.7</ele>
        <time>2013-02-03T11:56:21Z</time>
      </trkpt>
      <trkpt lat="43.15284" lon="-0.24851">
        <ele>400.7</ele>
        <time>2013-02-03T11:56:26Z</time>
      </trkpt>
      <trkpt lat="43.15283" lon="-0.24851">
        <ele>400.7</ele>
        <time>2013-02-03T11:56:31Z</time>
      </trkpt>
      <trkpt lat="43.15283" lon="-0.2485">
        <ele>400.7</ele>
        <time>2013-02-03T11:56:36Z</time>
      </trkpt>
      <trkpt lat="43.15283" lon="-0.24849">
        <ele>400.7</ele>
        <time>2013-02-03T11:56:41Z</time>
      </trkpt>
      <trkpt lat="43.15284" lon="-0.24849">
        <ele>400.6</ele>
        <time>2013-02-03T11:56:46Z</time>
      </trkpt>
      <trkpt lat="43.15291" lon="-0.24845">
        <ele>400.3</ele>
        <time>2013-02-03T11:56:51Z</time>
      </trkpt>
      <trkpt lat="43.15301" lon="-0.24838">
        <ele>400</ele>
        <time>2013-02-03T11:56:56Z</time>
      </trkpt>
      <trkpt lat="43.15311" lon="-0.24832">
        <ele>398.5</ele>
        <time>2013-02-03T11:57:01Z</time>
      </trkpt>
      <trkpt lat="43.15322" lon="-0.24841">
        <ele>396.1</ele>
        <time>2013-02-03T11:57:06Z</time>
      </trkpt>
      <trkpt lat="43.15325" lon="-0.24856">
        <ele>396</ele>
        <time>2013-02-03T11:57:11Z</time>
      </trkpt>
      <trkpt lat="43.15326" lon="-0.24873">
        <ele>396.3</ele>
        <time>2013-02-03T11:57:16Z</time>
      </trkpt>
      <trkpt lat="43.15332" lon="-0.24871">
        <ele>395.6</ele>
        <time>2013-02-03T11:57:21Z</time>
      </trkpt>
      <trkpt lat="43.15336" lon="-0.24858">
        <ele>394.2</ele>
        <time>2013-02-03T11:57:26Z</time>
      </trkpt>
      <trkpt lat="43.15346" lon="-0.24841">
        <ele>391.2</ele>
        <time>2013-02-03T11:57:31Z</time>
      </trkpt>
      <trkpt lat="43.15355" lon="-0.24839">
        <ele>389.3</ele>
        <time>2013-02-03T11:57:36Z</time>
      </trkpt>
      <trkpt lat="43.15366" lon="-0.24848">
        <ele>387.6</ele>
        <time>2013-02-03T11:57:41Z</time>
      </trkpt>
      <trkpt lat="43.15377" lon="-0.24859">
        <ele>386</ele>
        <time>2013-02-03T11:57:46Z</time>
      </trkpt>
      <trkpt lat="43.15385" lon="-0.2486">
        <ele>384.6</ele>
        <time>2013-02-03T11:57:51Z</time>
      </trkpt>
      <trkpt lat="43.15398" lon="-0.24851">
        <ele>382.4</ele>
        <time>2013-02-03T11:57:56Z</time>
      </trkpt>
      <trkpt lat="43.15406" lon="-0.24844">
        <ele>381.3</ele>
        <time>2013-02-03T11:58:01Z</time>
      </trkpt>
      <trkpt lat="43.15417" lon="-0.24838">
        <ele>380.1</ele>
        <time>2013-02-03T11:58:06Z</time>
      </trkpt>
      <trkpt lat="43.15433" lon="-0.24837">
        <ele>378.2</ele>
        <time>2013-02-03T11:58:11Z</time>
      </trkpt>
      <trkpt lat="43.15442" lon="-0.24842">
        <ele>377</ele>
        <time>2013-02-03T11:58:16Z</time>
      </trkpt>
      <trkpt lat="43.15455" lon="-0.2484">
        <ele>374.6</ele>
        <time>2013-02-03T11:58:21Z</time>
      </trkpt>
      <trkpt lat="43.15469" lon="-0.24835">
        <ele>371.8</ele>
        <time>2013-02-03T11:58:26Z</time>
      </trkpt>
      <trkpt lat="43.15482" lon="-0.24833">
        <ele>368.5</ele>
        <time>2013-02-03T11:58:31Z</time>
      </trkpt>
      <trkpt lat="43.15496" lon="-0.24836">
        <ele>365</ele>
        <time>2013-02-03T11:58:36Z</time>
      </trkpt>
      <trkpt lat="43.15509" lon="-0.24838">
        <ele>362.5</ele>
        <time>2013-02-03T11:58:41Z</time>
      </trkpt>
      <trkpt lat="43.15526" lon="-0.24838">
        <ele>359.4</ele>
        <time>2013-02-03T11:58:46Z</time>
      </trkpt>
      <trkpt lat="43.15536" lon="-0.24838">
        <ele>357.7</ele>
        <time>2013-02-03T11:58:51Z</time>
      </trkpt>
      <trkpt lat="43.15547" lon="-0.24836">
        <ele>355.7</ele>
        <time>2013-02-03T11:58:56Z</time>
      </trkpt>
      <trkpt lat="43.1556" lon="-0.24837">
        <ele>353.6</ele>
        <time>2013-02-03T11:59:01Z</time>
      </trkpt>
      <trkpt lat="43.15567" lon="-0.24843">
        <ele>353.1</ele>
        <time>2013-02-03T11:59:06Z</time>
      </trkpt>
      <trkpt lat="43.15577" lon="-0.24851">
        <ele>352.3</ele>
        <time>2013-02-03T11:59:11Z</time>
      </trkpt>
      <trkpt lat="43.15581" lon="-0.2485">
        <ele>351.8</ele>
        <time>2013-02-03T11:59:16Z</time>
      </trkpt>
      <trkpt lat="43.15593" lon="-0.24839">
        <ele>350.2</ele>
        <time>2013-02-03T11:59:21Z</time>
      </trkpt>
      <trkpt lat="43.15601" lon="-0.24831">
        <ele>348.6</ele>
        <time>2013-02-03T11:59:26Z</time>
      </trkpt>
      <trkpt lat="43.15612" lon="-0.24822">
        <ele>346.3</ele>
        <time>2013-02-03T11:59:31Z</time>
      </trkpt>
      <trkpt lat="43.1563" lon="-0.24815">
        <ele>343.8</ele>
        <time>2013-02-03T11:59:36Z</time>
      </trkpt>
      <trkpt lat="43.15642" lon="-0.24816">
        <ele>342.7</ele>
        <time>2013-02-03T11:59:41Z</time>
      </trkpt>
      <trkpt lat="43.1566" lon="-0.24822">
        <ele>341.1</ele>
        <time>2013-02-03T11:59:46Z</time>
      </trkpt>
      <trkpt lat="43.15671" lon="-0.24827">
        <ele>340.1</ele>
        <time>2013-02-03T11:59:51Z</time>
      </trkpt>
      <trkpt lat="43.15684" lon="-0.24835">
        <ele>338.4</ele>
        <time>2013-02-03T11:59:56Z</time>
      </trkpt>
      <trkpt lat="43.15699" lon="-0.24843">
        <ele>335.8</ele>
        <time>2013-02-03T12:00:01Z</time>
      </trkpt>
      <trkpt lat="43.15709" lon="-0.24853">
        <ele>334.5</ele>
        <time>2013-02-03T12:00:06Z</time>
      </trkpt>
      <trkpt lat="43.15724" lon="-0.24863">
        <ele>333</ele>
        <time>2013-02-03T12:00:11Z</time>
      </trkpt>
      <trkpt lat="43.15729" lon="-0.24865">
        <ele>332.8</ele>
        <time>2013-02-03T12:00:16Z</time>
      </trkpt>
      <trkpt lat="43.15732" lon="-0.24858">
        <ele>331.5</ele>
        <time>2013-02-03T12:00:21Z</time>
      </trkpt>
      <trkpt lat="43.15722" lon="-0.24845">
        <ele>329.6</ele>
        <time>2013-02-03T12:00:26Z</time>
      </trkpt>
      <trkpt lat="43.15714" lon="-0.24837">
        <ele>330.3</ele>
        <time>2013-02-03T12:00:31Z</time>
      </trkpt>
      <trkpt lat="43.1571" lon="-0.2483">
        <ele>330.3</ele>
        <time>2013-02-03T12:00:36Z</time>
      </trkpt>
      <trkpt lat="43.15711" lon="-0.24829">
        <ele>329.8</ele>
        <time>2013-02-03T12:00:41Z</time>
      </trkpt>
      <trkpt lat="43.15712" lon="-0.24828">
        <ele>329.4</ele>
        <time>2013-02-03T12:00:46Z</time>
      </trkpt>
      <trkpt lat="43.15706" lon="-0.24814">
        <ele>329</ele>
        <time>2013-02-03T12:00:51Z</time>
      </trkpt>
      <trkpt lat="43.15703" lon="-0.24799">
        <ele>328</ele>
        <time>2013-02-03T12:00:56Z</time>
      </trkpt>
      <trkpt lat="43.15704" lon="-0.24778">
        <ele>325.6</ele>
        <time>2013-02-03T12:01:01Z</time>
      </trkpt>
      <trkpt lat="43.15702" lon="-0.24753">
        <ele>324.2</ele>
        <time>2013-02-03T12:01:06Z</time>
      </trkpt>
      <trkpt lat="43.15697" lon="-0.24739">
        <ele>323</ele>
        <time>2013-02-03T12:01:11Z</time>
      </trkpt>
      <trkpt lat="43.1569" lon="-0.24724">
        <ele>321.3</ele>
        <time>2013-02-03T12:01:16Z</time>
      </trkpt>
      <trkpt lat="43.15681" lon="-0.24711">
        <ele>319</ele>
        <time>2013-02-03T12:01:21Z</time>
      </trkpt>
      <trkpt lat="43.15684" lon="-0.24684">
        <ele>315</ele>
        <time>2013-02-03T12:01:26Z</time>
      </trkpt>
      <trkpt lat="43.15686" lon="-0.24663">
        <ele>312.5</ele>
        <time>2013-02-03T12:01:31Z</time>
      </trkpt>
      <trkpt lat="43.15684" lon="-0.24643">
        <ele>310.5</ele>
        <time>2013-02-03T12:01:36Z</time>
      </trkpt>
      <trkpt lat="43.15682" lon="-0.24622">
        <ele>309.2</ele>
        <time>2013-02-03T12:01:41Z</time>
      </trkpt>
      <trkpt lat="43.15683" lon="-0.24602">
        <ele>308.5</ele>
        <time>2013-02-03T12:01:46Z</time>
      </trkpt>
      <trkpt lat="43.15684" lon="-0.24582">
        <ele>308</ele>
        <time>2013-02-03T12:01:51Z</time>
      </trkpt>
      <trkpt lat="43.15686" lon="-0.24564">
        <ele>306.8</ele>
        <time>2013-02-03T12:01:56Z</time>
      </trkpt>
      <trkpt lat="43.15688" lon="-0.24545">
        <ele>306.1</ele>
        <time>2013-02-03T12:02:01Z</time>
      </trkpt>
      <trkpt lat="43.15681" lon="-0.24539">
        <ele>304</ele>
        <time>2013-02-03T12:02:06Z</time>
      </trkpt>
      <trkpt lat="43.15676" lon="-0.24549">
        <ele>303.3</ele>
        <time>2013-02-03T12:02:11Z</time>
      </trkpt>
      <trkpt lat="43.15669" lon="-0.24562">
        <ele>303</ele>
        <time>2013-02-03T12:02:16Z</time>
      </trkpt>
      <trkpt lat="43.15662" lon="-0.24577">
        <ele>303.1</ele>
        <time>2013-02-03T12:02:21Z</time>
      </trkpt>
      <trkpt lat="43.15658" lon="-0.24595">
        <ele>303.1</ele>
        <time>2013-02-03T12:02:26Z</time>
      </trkpt>
      <trkpt lat="43.1565" lon="-0.24605">
        <ele>301.4</ele>
        <time>2013-02-03T12:02:31Z</time>
      </trkpt>
      <trkpt lat="43.15645" lon="-0.24597">
        <ele>299.6</ele>
        <time>2013-02-03T12:02:36Z</time>
      </trkpt>
      <trkpt lat="43.15644" lon="-0.24578">
        <ele>298.4</ele>
        <time>2013-02-03T12:02:41Z</time>
      </trkpt>
      <trkpt lat="43.15648" lon="-0.24565">
        <ele>299</ele>
        <time>2013-02-03T12:02:46Z</time>
      </trkpt>
      <trkpt lat="43.15651" lon="-0.24546">
        <ele>298.6</ele>
        <time>2013-02-03T12:02:51Z</time>
      </trkpt>
      <trkpt lat="43.15655" lon="-0.24532">
        <ele>298</ele>
        <time>2013-02-03T12:02:56Z</time>
      </trkpt>
      <trkpt lat="43.15653" lon="-0.24513">
        <ele>295.9</ele>
        <time>2013-02-03T12:03:01Z</time>
      </trkpt>
      <trkpt lat="43.15651" lon="-0.24496">
        <ele>294</ele>
        <time>2013-02-03T12:03:06Z</time>
      </trkpt>
      <trkpt lat="43.15652" lon="-0.24493">
        <ele>293.7</ele>
        <time>2013-02-03T12:03:11Z</time>
      </trkpt>
      <trkpt lat="43.15652" lon="-0.24487">
        <ele>293.1</ele>
        <time>2013-02-03T12:03:16Z</time>
      </trkpt>
      <trkpt lat="43.15654" lon="-0.24481">
        <ele>292.5</ele>
        <time>2013-02-03T12:03:21Z</time>
      </trkpt>
      <trkpt lat="43.15661" lon="-0.24467">
        <ele>291</ele>
        <time>2013-02-03T12:03:26Z</time>
      </trkpt>
      <trkpt lat="43.15667" lon="-0.24448">
        <ele>288.5</ele>
        <time>2013-02-03T12:03:31Z</time>
      </trkpt>
      <trkpt lat="43.15676" lon="-0.24435">
        <ele>287.4</ele>
        <time>2013-02-03T12:03:36Z</time>
      </trkpt>
      <trkpt lat="43.1569" lon="-0.24422">
        <ele>285.8</ele>
        <time>2013-02-03T12:03:41Z</time>
      </trkpt>
      <trkpt lat="43.15699" lon="-0.24411">
        <ele>284.1</ele>
        <time>2013-02-03T12:03:46Z</time>
      </trkpt>
      <trkpt lat="43.15707" lon="-0.24398">
        <ele>282.4</ele>
        <time>2013-02-03T12:03:51Z</time>
      </trkpt>
      <trkpt lat="43.15718" lon="-0.24402">
        <ele>282.2</ele>
        <time>2013-02-03T12:03:56Z</time>
      </trkpt>
      <trkpt lat="43.15726" lon="-0.24408">
        <ele>282</ele>
        <time>2013-02-03T12:04:01Z</time>
      </trkpt>
      <trkpt lat="43.15735" lon="-0.24413">
        <ele>281.7</ele>
        <time>2013-02-03T12:04:06Z</time>
      </trkpt>
      <trkpt lat="43.15745" lon="-0.2442">
        <ele>281.9</ele>
        <time>2013-02-03T12:04:11Z</time>
      </trkpt>
      <trkpt lat="43.15754" lon="-0.24425">
        <ele>281.9</ele>
        <time>2013-02-03T12:04:16Z</time>
      </trkpt>
      <trkpt lat="43.15768" lon="-0.24427">
        <ele>280.3</ele>
        <time>2013-02-03T12:04:21Z</time>
      </trkpt>
      <trkpt lat="43.15772" lon="-0.2443">
        <ele>280.1</ele>
        <time>2013-02-03T12:04:26Z</time>
      </trkpt>
      <trkpt lat="43.15791" lon="-0.24433">
        <ele>279.7</ele>
        <time>2013-02-03T12:04:31Z</time>
      </trkpt>
      <trkpt lat="43.15799" lon="-0.24433">
        <ele>279.5</ele>
        <time>2013-02-03T12:04:36Z</time>
      </trkpt>
      <trkpt lat="43.1581" lon="-0.24435">
        <ele>279.7</ele>
        <time>2013-02-03T12:04:41Z</time>
      </trkpt>
      <trkpt lat="43.15828" lon="-0.24437">
        <ele>280.1</ele>
        <time>2013-02-03T12:04:46Z</time>
      </trkpt>
      <trkpt lat="43.15838" lon="-0.24434">
        <ele>280</ele>
        <time>2013-02-03T12:04:51Z</time>
      </trkpt>
      <trkpt lat="43.15855" lon="-0.24436">
        <ele>280.3</ele>
        <time>2013-02-03T12:04:56Z</time>
      </trkpt>
      <trkpt lat="43.15869" lon="-0.2444">
        <ele>280.7</ele>
        <time>2013-02-03T12:05:01Z</time>
      </trkpt>
      <trkpt lat="43.1588" lon="-0.24445">
        <ele>281</ele>
        <time>2013-02-03T12:05:06Z</time>
      </trkpt>
      <trkpt lat="43.15899" lon="-0.24448">
        <ele>280.9</ele>
        <time>2013-02-03T12:05:11Z</time>
      </trkpt>
      <trkpt lat="43.15908" lon="-0.2445">
        <ele>280.7</ele>
        <time>2013-02-03T12:05:16Z</time>
      </trkpt>
      <trkpt lat="43.15927" lon="-0.24456">
        <ele>281</ele>
        <time>2013-02-03T12:05:21Z</time>
      </trkpt>
      <trkpt lat="43.15938" lon="-0.24459">
        <ele>281.4</ele>
        <time>2013-02-03T12:05:26Z</time>
      </trkpt>
      <trkpt lat="43.15952" lon="-0.2446">
        <ele>281.6</ele>
        <time>2013-02-03T12:05:31Z</time>
      </trkpt>
      <trkpt lat="43.15968" lon="-0.2446">
        <ele>281.5</ele>
        <time>2013-02-03T12:05:36Z</time>
      </trkpt>
      <trkpt lat="43.1598" lon="-0.24461">
        <ele>281.3</ele>
        <time>2013-02-03T12:05:41Z</time>
      </trkpt>
      <trkpt lat="43.15998" lon="-0.24463">
        <ele>280.7</ele>
        <time>2013-02-03T12:05:46Z</time>
      </trkpt>
      <trkpt lat="43.16011" lon="-0.24466">
        <ele>281.1</ele>
        <time>2013-02-03T12:05:51Z</time>
      </trkpt>
      <trkpt lat="43.1602" lon="-0.24466">
        <ele>281.3</ele>
        <time>2013-02-03T12:05:56Z</time>
      </trkpt>
      <trkpt lat="43.16031" lon="-0.24465">
        <ele>281.4</ele>
        <time>2013-02-03T12:06:01Z</time>
      </trkpt>
      <trkpt lat="43.16043" lon="-0.24465">
        <ele>281.2</ele>
        <time>2013-02-03T12:06:06Z</time>
      </trkpt>
      <trkpt lat="43.16058" lon="-0.24466">
        <ele>281</ele>
        <time>2013-02-03T12:06:11Z</time>
      </trkpt>
      <trkpt lat="43.16068" lon="-0.24464">
        <ele>280.9</ele>
        <time>2013-02-03T12:06:16Z</time>
      </trkpt>
      <trkpt lat="43.16083" lon="-0.2446">
        <ele>280.6</ele>
        <time>2013-02-03T12:06:21Z</time>
      </trkpt>
      <trkpt lat="43.16096" lon="-0.24456">
        <ele>280.4</ele>
        <time>2013-02-03T12:06:26Z</time>
      </trkpt>
      <trkpt lat="43.16111" lon="-0.24453">
        <ele>280.3</ele>
        <time>2013-02-03T12:06:31Z</time>
      </trkpt>
      <trkpt lat="43.16119" lon="-0.24452">
        <ele>280</ele>
        <time>2013-02-03T12:06:36Z</time>
      </trkpt>
      <trkpt lat="43.16121" lon="-0.24448">
        <ele>279.8</ele>
        <time>2013-02-03T12:06:41Z</time>
      </trkpt>
      <trkpt lat="43.16124" lon="-0.24439">
        <ele>279.3</ele>
        <time>2013-02-03T12:06:46Z</time>
      </trkpt>
      <trkpt lat="43.16128" lon="-0.24424">
        <ele>278.6</ele>
        <time>2013-02-03T12:06:51Z</time>
      </trkpt>
      <trkpt lat="43.16129" lon="-0.24411">
        <ele>278.3</ele>
        <time>2013-02-03T12:06:56Z</time>
      </trkpt>
      <trkpt lat="43.1613" lon="-0.24393">
        <ele>278</ele>
        <time>2013-02-03T12:07:01Z</time>
      </trkpt>
      <trkpt lat="43.16133" lon="-0.24378">
        <ele>277.7</ele>
        <time>2013-02-03T12:07:06Z</time>
      </trkpt>
      <trkpt lat="43.16135" lon="-0.24355">
        <ele>276.9</ele>
        <time>2013-02-03T12:07:11Z</time>
      </trkpt>
      <trkpt lat="43.16137" lon="-0.2434">
        <ele>276.3</ele>
        <time>2013-02-03T12:07:16Z</time>
      </trkpt>
      <trkpt lat="43.16138" lon="-0.24319">
        <ele>275</ele>
        <time>2013-02-03T12:07:21Z</time>
      </trkpt>
      <trkpt lat="43.16137" lon="-0.24294">
        <ele>273.2</ele>
        <time>2013-02-03T12:07:26Z</time>
      </trkpt>
      <trkpt lat="43.16137" lon="-0.24278">
        <ele>272.1</ele>
        <time>2013-02-03T12:07:31Z</time>
      </trkpt>
      <trkpt lat="43.16137" lon="-0.24259">
        <ele>272</ele>
        <time>2013-02-03T12:07:36Z</time>
      </trkpt>
      <trkpt lat="43.16136" lon="-0.24237">
        <ele>272</ele>
        <time>2013-02-03T12:07:41Z</time>
      </trkpt>
      <trkpt lat="43.16135" lon="-0.24225">
        <ele>272</ele>
        <time>2013-02-03T12:07:46Z</time>
      </trkpt>
      <trkpt lat="43.16135" lon="-0.24202">
        <ele>271.4</ele>
        <time>2013-02-03T12:07:51Z</time>
      </trkpt>
      <trkpt lat="43.16135" lon="-0.24186">
        <ele>271.1</ele>
        <time>2013-02-03T12:07:56Z</time>
      </trkpt>
      <trkpt lat="43.16135" lon="-0.24161">
        <ele>271</ele>
        <time>2013-02-03T12:08:01Z</time>
      </trkpt>
      <trkpt lat="43.16134" lon="-0.24147">
        <ele>270.9</ele>
        <time>2013-02-03T12:08:06Z</time>
      </trkpt>
      <trkpt lat="43.16136" lon="-0.24128">
        <ele>270.1</ele>
        <time>2013-02-03T12:08:11Z</time>
      </trkpt>
      <trkpt lat="43.16141" lon="-0.24108">
        <ele>268.8</ele>
        <time>2013-02-03T12:08:16Z</time>
      </trkpt>
      <trkpt lat="43.16143" lon="-0.24089">
        <ele>268.2</ele>
        <time>2013-02-03T12:08:21Z</time>
      </trkpt>
      <trkpt lat="43.16136" lon="-0.2407">
        <ele>268.6</ele>
        <time>2013-02-03T12:08:26Z</time>
      </trkpt>
      <trkpt lat="43.16127" lon="-0.24062">
        <ele>269</ele>
        <time>2013-02-03T12:08:31Z</time>
      </trkpt>
      <trkpt lat="43.16117" lon="-0.24053">
        <ele>269</ele>
        <time>2013-02-03T12:08:36Z</time>
      </trkpt>
      <trkpt lat="43.16106" lon="-0.2404">
        <ele>269.2</ele>
        <time>2013-02-03T12:08:41Z</time>
      </trkpt>
      <trkpt lat="43.161" lon="-0.2403">
        <ele>269.4</ele>
        <time>2013-02-03T12:08:46Z</time>
      </trkpt>
      <trkpt lat="43.16092" lon="-0.24016">
        <ele>269.4</ele>
        <time>2013-02-03T12:08:51Z</time>
      </trkpt>
      <trkpt lat="43.16084" lon="-0.24001">
        <ele>269</ele>
        <time>2013-02-03T12:08:56Z</time>
      </trkpt>
      <trkpt lat="43.16074" lon="-0.23987">
        <ele>269.2</ele>
        <time>2013-02-03T12:09:01Z</time>
      </trkpt>
      <trkpt lat="43.16062" lon="-0.23971">
        <ele>269</ele>
        <time>2013-02-03T12:09:06Z</time>
      </trkpt>
      <trkpt lat="43.16052" lon="-0.23963">
        <ele>269</ele>
        <time>2013-02-03T12:09:11Z</time>
      </trkpt>
      <trkpt lat="43.16042" lon="-0.23953">
        <ele>269</ele>
        <time>2013-02-03T12:09:16Z</time>
      </trkpt>
      <trkpt lat="43.16031" lon="-0.23945">
        <ele>269</ele>
        <time>2013-02-03T12:09:21Z</time>
      </trkpt>
      <trkpt lat="43.16018" lon="-0.23938">
        <ele>269.5</ele>
        <time>2013-02-03T12:09:26Z</time>
      </trkpt>
      <trkpt lat="43.16006" lon="-0.23934">
        <ele>269.9</ele>
        <time>2013-02-03T12:09:31Z</time>
      </trkpt>
      <trkpt lat="43.15994" lon="-0.2393">
        <ele>270.2</ele>
        <time>2013-02-03T12:09:36Z</time>
      </trkpt>
      <trkpt lat="43.15977" lon="-0.23923">
        <ele>270.8</ele>
        <time>2013-02-03T12:09:41Z</time>
      </trkpt>
      <trkpt lat="43.15964" lon="-0.23916">
        <ele>271</ele>
        <time>2013-02-03T12:09:46Z</time>
      </trkpt>
      <trkpt lat="43.15957" lon="-0.23904">
        <ele>271</ele>
        <time>2013-02-03T12:09:51Z</time>
      </trkpt>
      <trkpt lat="43.15961" lon="-0.23883">
        <ele>270.6</ele>
        <time>2013-02-03T12:09:56Z</time>
      </trkpt>
      <trkpt lat="43.15965" lon="-0.2387">
        <ele>269.8</ele>
        <time>2013-02-03T12:10:01Z</time>
      </trkpt>
      <trkpt lat="43.15971" lon="-0.23853">
        <ele>269.3</ele>
        <time>2013-02-03T12:10:06Z</time>
      </trkpt>
      <trkpt lat="43.15976" lon="-0.23841">
        <ele>269.7</ele>
        <time>2013-02-03T12:10:11Z</time>
      </trkpt>
      <trkpt lat="43.15983" lon="-0.23822">
        <ele>270.4</ele>
        <time>2013-02-03T12:10:16Z</time>
      </trkpt>
      <trkpt lat="43.15987" lon="-0.23807">
        <ele>270.9</ele>
        <time>2013-02-03T12:10:21Z</time>
      </trkpt>
      <trkpt lat="43.15995" lon="-0.23784">
        <ele>271</ele>
        <time>2013-02-03T12:10:26Z</time>
      </trkpt>
      <trkpt lat="43.16002" lon="-0.23763">
        <ele>270.9</ele>
        <time>2013-02-03T12:10:31Z</time>
      </trkpt>
      <trkpt lat="43.16006" lon="-0.23749">
        <ele>270.8</ele>
        <time>2013-02-03T12:10:36Z</time>
      </trkpt>
      <trkpt lat="43.16012" lon="-0.2373">
        <ele>270.6</ele>
        <time>2013-02-03T12:10:41Z</time>
      </trkpt>
      <trkpt lat="43.16014" lon="-0.23723">
        <ele>270.5</ele>
        <time>2013-02-03T12:10:46Z</time>
      </trkpt>
    </trkseg>
  </trk>
</gpx>